<?xml version="1.0" encoding="UTF-8" standalone="no" ?>
<gpx xmlns="http://www.topografix.com/GPX/1/1" xmlns:xsi="http://www.w3.org/2001/XMLSchema-instance" xsi:schemaLocation="http://www.topografix.com/GPX/1/1 http://www.topografix.com/GPX/1/1/gpx.xsd" version="1.1" creator="VisuGPX - https://www.visugpx.com">
  <metadata>
    <name>2021-03-20 Papiermuhle</name>
  </metadata>
  <trk>
    <name><![CDATA[2021-03-20 09:28:13]]></name>
    <trkseg>
      <trkpt lat="49.12377" lon="6.75968">
        <ele>299.59</ele>
        <time>2021-03-20T06:25:01Z</time>
      </trkpt>
      <trkpt lat="49.12377" lon="6.75969">
        <ele>299.59</ele>
        <time>2021-03-20T06:25:04Z</time>
      </trkpt>
      <trkpt lat="49.12377" lon="6.7597">
        <ele>228.93</ele>
        <time>2021-03-20T06:25:08Z</time>
      </trkpt>
      <trkpt lat="49.12377" lon="6.7597">
        <ele>229.41</ele>
        <time>2021-03-20T06:25:09Z</time>
      </trkpt>
      <trkpt lat="49.12375" lon="6.75971">
        <ele>228.45</ele>
        <time>2021-03-20T06:25:28Z</time>
      </trkpt>
      <trkpt lat="49.12374" lon="6.75976">
        <ele>228.93</ele>
        <time>2021-03-20T06:25:35Z</time>
      </trkpt>
      <trkpt lat="49.12375" lon="6.76003">
        <ele>229.41</ele>
        <time>2021-03-20T06:25:52Z</time>
      </trkpt>
      <trkpt lat="49.12363" lon="6.76022">
        <ele>229.41</ele>
        <time>2021-03-20T06:26:08Z</time>
      </trkpt>
      <trkpt lat="49.12358" lon="6.76028">
        <ele>229.41</ele>
        <time>2021-03-20T06:26:15Z</time>
      </trkpt>
      <trkpt lat="49.1234" lon="6.76032">
        <ele>229.41</ele>
        <time>2021-03-20T06:26:33Z</time>
      </trkpt>
      <trkpt lat="49.12328" lon="6.7603">
        <ele>229.41</ele>
        <time>2021-03-20T06:26:49Z</time>
      </trkpt>
      <trkpt lat="49.12323" lon="6.76028">
        <ele>230.37</ele>
        <time>2021-03-20T06:26:54Z</time>
      </trkpt>
      <trkpt lat="49.12311" lon="6.7602">
        <ele>230.37</ele>
        <time>2021-03-20T06:27:08Z</time>
      </trkpt>
      <trkpt lat="49.1231" lon="6.76018">
        <ele>229.89</ele>
        <time>2021-03-20T06:27:09Z</time>
      </trkpt>
      <trkpt lat="49.12294" lon="6.76011">
        <ele>231.81</ele>
        <time>2021-03-20T06:27:25Z</time>
      </trkpt>
      <trkpt lat="49.12282" lon="6.76022">
        <ele>232.78</ele>
        <time>2021-03-20T06:27:40Z</time>
      </trkpt>
      <trkpt lat="49.12279" lon="6.76023">
        <ele>231.81</ele>
        <time>2021-03-20T06:27:43Z</time>
      </trkpt>
      <trkpt lat="49.12272" lon="6.76029">
        <ele>231.81</ele>
        <time>2021-03-20T06:27:48Z</time>
      </trkpt>
      <trkpt lat="49.12268" lon="6.76028">
        <ele>232.78</ele>
        <time>2021-03-20T06:27:51Z</time>
      </trkpt>
      <trkpt lat="49.12254" lon="6.76037">
        <ele>233.74</ele>
        <time>2021-03-20T06:28:07Z</time>
      </trkpt>
      <trkpt lat="49.12243" lon="6.76045">
        <ele>232.3</ele>
        <time>2021-03-20T06:28:20Z</time>
      </trkpt>
      <trkpt lat="49.12234" lon="6.7605">
        <ele>231.33</ele>
        <time>2021-03-20T06:28:27Z</time>
      </trkpt>
      <trkpt lat="49.12215" lon="6.76063">
        <ele>230.37</ele>
        <time>2021-03-20T06:28:43Z</time>
      </trkpt>
      <trkpt lat="49.1221" lon="6.76066">
        <ele>230.37</ele>
        <time>2021-03-20T06:28:48Z</time>
      </trkpt>
      <trkpt lat="49.12204" lon="6.76069">
        <ele>229.89</ele>
        <time>2021-03-20T06:28:53Z</time>
      </trkpt>
      <trkpt lat="49.12188" lon="6.7608">
        <ele>228.45</ele>
        <time>2021-03-20T06:29:08Z</time>
      </trkpt>
      <trkpt lat="49.12182" lon="6.76085">
        <ele>227.97</ele>
        <time>2021-03-20T06:29:12Z</time>
      </trkpt>
      <trkpt lat="49.12167" lon="6.7609">
        <ele>227.97</ele>
        <time>2021-03-20T06:29:24Z</time>
      </trkpt>
      <trkpt lat="49.1215" lon="6.76088">
        <ele>227.01</ele>
        <time>2021-03-20T06:29:39Z</time>
      </trkpt>
      <trkpt lat="49.12148" lon="6.76086">
        <ele>227.49</ele>
        <time>2021-03-20T06:29:41Z</time>
      </trkpt>
      <trkpt lat="49.1213" lon="6.76077">
        <ele>226.53</ele>
        <time>2021-03-20T06:29:59Z</time>
      </trkpt>
      <trkpt lat="49.1212" lon="6.7607">
        <ele>226.05</ele>
        <time>2021-03-20T06:30:10Z</time>
      </trkpt>
      <trkpt lat="49.12117" lon="6.76069">
        <ele>225.57</ele>
        <time>2021-03-20T06:30:13Z</time>
      </trkpt>
      <trkpt lat="49.12114" lon="6.76068">
        <ele>227.01</ele>
        <time>2021-03-20T06:30:15Z</time>
      </trkpt>
      <trkpt lat="49.12106" lon="6.76064">
        <ele>227.01</ele>
        <time>2021-03-20T06:30:22Z</time>
      </trkpt>
      <trkpt lat="49.12086" lon="6.76055">
        <ele>226.05</ele>
        <time>2021-03-20T06:30:38Z</time>
      </trkpt>
      <trkpt lat="49.12071" lon="6.76047">
        <ele>226.05</ele>
        <time>2021-03-20T06:30:51Z</time>
      </trkpt>
      <trkpt lat="49.12057" lon="6.7604">
        <ele>225.57</ele>
        <time>2021-03-20T06:31:03Z</time>
      </trkpt>
      <trkpt lat="49.12045" lon="6.76035">
        <ele>226.05</ele>
        <time>2021-03-20T06:31:14Z</time>
      </trkpt>
      <trkpt lat="49.12027" lon="6.76026">
        <ele>226.05</ele>
        <time>2021-03-20T06:31:31Z</time>
      </trkpt>
      <trkpt lat="49.12025" lon="6.76024">
        <ele>225.57</ele>
        <time>2021-03-20T06:31:33Z</time>
      </trkpt>
      <trkpt lat="49.1201" lon="6.76023">
        <ele>226.05</ele>
        <time>2021-03-20T06:31:44Z</time>
      </trkpt>
      <trkpt lat="49.12007" lon="6.76022">
        <ele>226.05</ele>
        <time>2021-03-20T06:31:47Z</time>
      </trkpt>
      <trkpt lat="49.11991" lon="6.76028">
        <ele>226.53</ele>
        <time>2021-03-20T06:32:01Z</time>
      </trkpt>
      <trkpt lat="49.11988" lon="6.76029">
        <ele>227.01</ele>
        <time>2021-03-20T06:32:04Z</time>
      </trkpt>
      <trkpt lat="49.11974" lon="6.76056">
        <ele>227.49</ele>
        <time>2021-03-20T06:32:20Z</time>
      </trkpt>
      <trkpt lat="49.1197" lon="6.76088">
        <ele>226.53</ele>
        <time>2021-03-20T06:32:36Z</time>
      </trkpt>
      <trkpt lat="49.1197" lon="6.76093">
        <ele>226.53</ele>
        <time>2021-03-20T06:32:38Z</time>
      </trkpt>
      <trkpt lat="49.11958" lon="6.76115">
        <ele>227.01</ele>
        <time>2021-03-20T06:32:53Z</time>
      </trkpt>
      <trkpt lat="49.11956" lon="6.76117">
        <ele>226.53</ele>
        <time>2021-03-20T06:32:55Z</time>
      </trkpt>
      <trkpt lat="49.11942" lon="6.76119">
        <ele>226.53</ele>
        <time>2021-03-20T06:33:09Z</time>
      </trkpt>
      <trkpt lat="49.11939" lon="6.76118">
        <ele>226.53</ele>
        <time>2021-03-20T06:33:13Z</time>
      </trkpt>
      <trkpt lat="49.11922" lon="6.76116">
        <ele>226.53</ele>
        <time>2021-03-20T06:33:28Z</time>
      </trkpt>
      <trkpt lat="49.11903" lon="6.76115">
        <ele>226.05</ele>
        <time>2021-03-20T06:33:43Z</time>
      </trkpt>
      <trkpt lat="49.11895" lon="6.76112">
        <ele>226.05</ele>
        <time>2021-03-20T06:33:49Z</time>
      </trkpt>
      <trkpt lat="49.11893" lon="6.7611">
        <ele>226.53</ele>
        <time>2021-03-20T06:33:51Z</time>
      </trkpt>
      <trkpt lat="49.11874" lon="6.76108">
        <ele>226.05</ele>
        <time>2021-03-20T06:34:06Z</time>
      </trkpt>
      <trkpt lat="49.11862" lon="6.7611">
        <ele>227.01</ele>
        <time>2021-03-20T06:34:18Z</time>
      </trkpt>
      <trkpt lat="49.11846" lon="6.76104">
        <ele>227.97</ele>
        <time>2021-03-20T06:34:32Z</time>
      </trkpt>
      <trkpt lat="49.11839" lon="6.76104">
        <ele>227.97</ele>
        <time>2021-03-20T06:34:37Z</time>
      </trkpt>
      <trkpt lat="49.11824" lon="6.76106">
        <ele>228.45</ele>
        <time>2021-03-20T06:34:48Z</time>
      </trkpt>
      <trkpt lat="49.11821" lon="6.76103">
        <ele>228.93</ele>
        <time>2021-03-20T06:34:51Z</time>
      </trkpt>
      <trkpt lat="49.11802" lon="6.76106">
        <ele>228.93</ele>
        <time>2021-03-20T06:35:05Z</time>
      </trkpt>
      <trkpt lat="49.11788" lon="6.76108">
        <ele>230.37</ele>
        <time>2021-03-20T06:35:17Z</time>
      </trkpt>
      <trkpt lat="49.11774" lon="6.76115">
        <ele>230.85</ele>
        <time>2021-03-20T06:35:30Z</time>
      </trkpt>
      <trkpt lat="49.11757" lon="6.76132">
        <ele>230.85</ele>
        <time>2021-03-20T06:35:46Z</time>
      </trkpt>
      <trkpt lat="49.11744" lon="6.76147">
        <ele>230.85</ele>
        <time>2021-03-20T06:35:59Z</time>
      </trkpt>
      <trkpt lat="49.11741" lon="6.76151">
        <ele>230.85</ele>
        <time>2021-03-20T06:36:02Z</time>
      </trkpt>
      <trkpt lat="49.11733" lon="6.76163">
        <ele>230.37</ele>
        <time>2021-03-20T06:36:13Z</time>
      </trkpt>
      <trkpt lat="49.11718" lon="6.76167">
        <ele>232.3</ele>
        <time>2021-03-20T06:36:27Z</time>
      </trkpt>
      <trkpt lat="49.11702" lon="6.76168">
        <ele>233.74</ele>
        <time>2021-03-20T06:36:41Z</time>
      </trkpt>
      <trkpt lat="49.1168" lon="6.76167">
        <ele>236.14</ele>
        <time>2021-03-20T06:36:59Z</time>
      </trkpt>
      <trkpt lat="49.11665" lon="6.76159">
        <ele>237.58</ele>
        <time>2021-03-20T06:37:13Z</time>
      </trkpt>
      <trkpt lat="49.11653" lon="6.76151">
        <ele>239.02</ele>
        <time>2021-03-20T06:37:26Z</time>
      </trkpt>
      <trkpt lat="49.11638" lon="6.76138">
        <ele>241.43</ele>
        <time>2021-03-20T06:37:41Z</time>
      </trkpt>
      <trkpt lat="49.11624" lon="6.76125">
        <ele>243.35</ele>
        <time>2021-03-20T06:37:55Z</time>
      </trkpt>
      <trkpt lat="49.11624" lon="6.76125">
        <ele>243.35</ele>
        <time>2021-03-20T06:37:56Z</time>
      </trkpt>
      <trkpt lat="49.11621" lon="6.76123">
        <ele>244.31</ele>
        <time>2021-03-20T06:37:58Z</time>
      </trkpt>
      <trkpt lat="49.11606" lon="6.7611">
        <ele>244.31</ele>
        <time>2021-03-20T06:38:12Z</time>
      </trkpt>
      <trkpt lat="49.11594" lon="6.76101">
        <ele>244.79</ele>
        <time>2021-03-20T06:38:23Z</time>
      </trkpt>
      <trkpt lat="49.11586" lon="6.76093">
        <ele>244.79</ele>
        <time>2021-03-20T06:38:31Z</time>
      </trkpt>
      <trkpt lat="49.11581" lon="6.76088">
        <ele>244.79</ele>
        <time>2021-03-20T06:38:35Z</time>
      </trkpt>
      <trkpt lat="49.11567" lon="6.7607">
        <ele>244.79</ele>
        <time>2021-03-20T06:38:49Z</time>
      </trkpt>
      <trkpt lat="49.11555" lon="6.76055">
        <ele>245.27</ele>
        <time>2021-03-20T06:39:03Z</time>
      </trkpt>
      <trkpt lat="49.11548" lon="6.76045">
        <ele>244.79</ele>
        <time>2021-03-20T06:39:11Z</time>
      </trkpt>
      <trkpt lat="49.11533" lon="6.76018">
        <ele>244.79</ele>
        <time>2021-03-20T06:39:29Z</time>
      </trkpt>
      <trkpt lat="49.11516" lon="6.75985">
        <ele>244.31</ele>
        <time>2021-03-20T06:39:49Z</time>
      </trkpt>
      <trkpt lat="49.11505" lon="6.75961">
        <ele>244.31</ele>
        <time>2021-03-20T06:40:04Z</time>
      </trkpt>
      <trkpt lat="49.11505" lon="6.75943">
        <ele>244.79</ele>
        <time>2021-03-20T06:40:12Z</time>
      </trkpt>
      <trkpt lat="49.11506" lon="6.75903">
        <ele>246.23</ele>
        <time>2021-03-20T06:40:31Z</time>
      </trkpt>
      <trkpt lat="49.11506" lon="6.75901">
        <ele>246.23</ele>
        <time>2021-03-20T06:40:32Z</time>
      </trkpt>
      <trkpt lat="49.11513" lon="6.75897">
        <ele>247.2</ele>
        <time>2021-03-20T06:40:39Z</time>
      </trkpt>
      <trkpt lat="49.11516" lon="6.75899">
        <ele>248.64</ele>
        <time>2021-03-20T06:40:42Z</time>
      </trkpt>
      <trkpt lat="49.11523" lon="6.75904">
        <ele>250.08</ele>
        <time>2021-03-20T06:40:48Z</time>
      </trkpt>
      <trkpt lat="49.11525" lon="6.75905">
        <ele>251.52</ele>
        <time>2021-03-20T06:40:50Z</time>
      </trkpt>
      <trkpt lat="49.1154" lon="6.75909">
        <ele>253.44</ele>
        <time>2021-03-20T06:41:04Z</time>
      </trkpt>
      <trkpt lat="49.11558" lon="6.75908">
        <ele>256.81</ele>
        <time>2021-03-20T06:41:20Z</time>
      </trkpt>
      <trkpt lat="49.11575" lon="6.75905">
        <ele>258.73</ele>
        <time>2021-03-20T06:41:36Z</time>
      </trkpt>
      <trkpt lat="49.11586" lon="6.75903">
        <ele>260.17</ele>
        <time>2021-03-20T06:41:45Z</time>
      </trkpt>
      <trkpt lat="49.11598" lon="6.75898">
        <ele>262.58</ele>
        <time>2021-03-20T06:41:57Z</time>
      </trkpt>
      <trkpt lat="49.11603" lon="6.75897">
        <ele>264.02</ele>
        <time>2021-03-20T06:42:02Z</time>
      </trkpt>
      <trkpt lat="49.11617" lon="6.75891">
        <ele>266.42</ele>
        <time>2021-03-20T06:42:16Z</time>
      </trkpt>
      <trkpt lat="49.11619" lon="6.75891">
        <ele>266.9</ele>
        <time>2021-03-20T06:42:20Z</time>
      </trkpt>
      <trkpt lat="49.11624" lon="6.75886">
        <ele>267.38</ele>
        <time>2021-03-20T06:42:26Z</time>
      </trkpt>
      <trkpt lat="49.11626" lon="6.75882">
        <ele>268.83</ele>
        <time>2021-03-20T06:42:29Z</time>
      </trkpt>
      <trkpt lat="49.11628" lon="6.75879">
        <ele>268.83</ele>
        <time>2021-03-20T06:42:33Z</time>
      </trkpt>
      <trkpt lat="49.11633" lon="6.75866">
        <ele>270.75</ele>
        <time>2021-03-20T06:42:45Z</time>
      </trkpt>
      <trkpt lat="49.11637" lon="6.75847">
        <ele>271.71</ele>
        <time>2021-03-20T06:42:58Z</time>
      </trkpt>
      <trkpt lat="49.11642" lon="6.75826">
        <ele>274.11</ele>
        <time>2021-03-20T06:43:11Z</time>
      </trkpt>
      <trkpt lat="49.11648" lon="6.75801">
        <ele>275.56</ele>
        <time>2021-03-20T06:43:27Z</time>
      </trkpt>
      <trkpt lat="49.11655" lon="6.75787">
        <ele>277.48</ele>
        <time>2021-03-20T06:43:38Z</time>
      </trkpt>
      <trkpt lat="49.1166" lon="6.75764">
        <ele>279.4</ele>
        <time>2021-03-20T06:43:53Z</time>
      </trkpt>
      <trkpt lat="49.11666" lon="6.75748">
        <ele>280.36</ele>
        <time>2021-03-20T06:44:04Z</time>
      </trkpt>
      <trkpt lat="49.11672" lon="6.75721">
        <ele>281.8</ele>
        <time>2021-03-20T06:44:18Z</time>
      </trkpt>
      <trkpt lat="49.11679" lon="6.75697">
        <ele>283.25</ele>
        <time>2021-03-20T06:44:32Z</time>
      </trkpt>
      <trkpt lat="49.11682" lon="6.75684">
        <ele>283.73</ele>
        <time>2021-03-20T06:44:39Z</time>
      </trkpt>
      <trkpt lat="49.11689" lon="6.75664">
        <ele>285.17</ele>
        <time>2021-03-20T06:44:54Z</time>
      </trkpt>
      <trkpt lat="49.11695" lon="6.75643">
        <ele>286.13</ele>
        <time>2021-03-20T06:45:07Z</time>
      </trkpt>
      <trkpt lat="49.11698" lon="6.75638">
        <ele>285.65</ele>
        <time>2021-03-20T06:45:10Z</time>
      </trkpt>
      <trkpt lat="49.11707" lon="6.75599">
        <ele>287.09</ele>
        <time>2021-03-20T06:45:30Z</time>
      </trkpt>
      <trkpt lat="49.11715" lon="6.7557">
        <ele>288.05</ele>
        <time>2021-03-20T06:45:46Z</time>
      </trkpt>
      <trkpt lat="49.11723" lon="6.7555">
        <ele>289.97</ele>
        <time>2021-03-20T06:46:00Z</time>
      </trkpt>
      <trkpt lat="49.11725" lon="6.75534">
        <ele>291.42</ele>
        <time>2021-03-20T06:46:08Z</time>
      </trkpt>
      <trkpt lat="49.11732" lon="6.75518">
        <ele>292.86</ele>
        <time>2021-03-20T06:46:21Z</time>
      </trkpt>
      <trkpt lat="49.11737" lon="6.75491">
        <ele>293.82</ele>
        <time>2021-03-20T06:46:35Z</time>
      </trkpt>
      <trkpt lat="49.11741" lon="6.75476">
        <ele>295.74</ele>
        <time>2021-03-20T06:46:45Z</time>
      </trkpt>
      <trkpt lat="49.11743" lon="6.75472">
        <ele>296.7</ele>
        <time>2021-03-20T06:46:47Z</time>
      </trkpt>
      <trkpt lat="49.11751" lon="6.75447">
        <ele>298.15</ele>
        <time>2021-03-20T06:47:02Z</time>
      </trkpt>
      <trkpt lat="49.11752" lon="6.75436">
        <ele>298.63</ele>
        <time>2021-03-20T06:47:08Z</time>
      </trkpt>
      <trkpt lat="49.11754" lon="6.75433">
        <ele>299.11</ele>
        <time>2021-03-20T06:47:10Z</time>
      </trkpt>
      <trkpt lat="49.11758" lon="6.75418">
        <ele>299.59</ele>
        <time>2021-03-20T06:47:18Z</time>
      </trkpt>
      <trkpt lat="49.1176" lon="6.75408">
        <ele>300.55</ele>
        <time>2021-03-20T06:47:25Z</time>
      </trkpt>
      <trkpt lat="49.11762" lon="6.75399">
        <ele>301.51</ele>
        <time>2021-03-20T06:47:31Z</time>
      </trkpt>
      <trkpt lat="49.1177" lon="6.75382">
        <ele>301.99</ele>
        <time>2021-03-20T06:47:43Z</time>
      </trkpt>
      <trkpt lat="49.11776" lon="6.75368">
        <ele>302.95</ele>
        <time>2021-03-20T06:47:52Z</time>
      </trkpt>
      <trkpt lat="49.11779" lon="6.75356">
        <ele>303.91</ele>
        <time>2021-03-20T06:47:58Z</time>
      </trkpt>
      <trkpt lat="49.11783" lon="6.7534">
        <ele>304.39</ele>
        <time>2021-03-20T06:48:06Z</time>
      </trkpt>
      <trkpt lat="49.1179" lon="6.7532">
        <ele>306.32</ele>
        <time>2021-03-20T06:48:17Z</time>
      </trkpt>
      <trkpt lat="49.11793" lon="6.75316">
        <ele>306.32</ele>
        <time>2021-03-20T06:48:20Z</time>
      </trkpt>
      <trkpt lat="49.11798" lon="6.75303">
        <ele>307.28</ele>
        <time>2021-03-20T06:48:28Z</time>
      </trkpt>
      <trkpt lat="49.11804" lon="6.75282">
        <ele>309.2</ele>
        <time>2021-03-20T06:48:42Z</time>
      </trkpt>
      <trkpt lat="49.11804" lon="6.75279">
        <ele>309.68</ele>
        <time>2021-03-20T06:48:48Z</time>
      </trkpt>
      <trkpt lat="49.11802" lon="6.7528">
        <ele>308.72</ele>
        <time>2021-03-20T06:48:54Z</time>
      </trkpt>
      <trkpt lat="49.11805" lon="6.7527">
        <ele>309.2</ele>
        <time>2021-03-20T06:48:58Z</time>
      </trkpt>
      <trkpt lat="49.1181" lon="6.75261">
        <ele>311.12</ele>
        <time>2021-03-20T06:49:04Z</time>
      </trkpt>
      <trkpt lat="49.1182" lon="6.75235">
        <ele>313.05</ele>
        <time>2021-03-20T06:49:18Z</time>
      </trkpt>
      <trkpt lat="49.11822" lon="6.75222">
        <ele>314.01</ele>
        <time>2021-03-20T06:49:23Z</time>
      </trkpt>
      <trkpt lat="49.11827" lon="6.75196">
        <ele>314.97</ele>
        <time>2021-03-20T06:49:36Z</time>
      </trkpt>
      <trkpt lat="49.11829" lon="6.75194">
        <ele>315.45</ele>
        <time>2021-03-20T06:49:41Z</time>
      </trkpt>
      <trkpt lat="49.11832" lon="6.75185">
        <ele>315.45</ele>
        <time>2021-03-20T06:49:46Z</time>
      </trkpt>
      <trkpt lat="49.11839" lon="6.75166">
        <ele>317.37</ele>
        <time>2021-03-20T06:49:57Z</time>
      </trkpt>
      <trkpt lat="49.11847" lon="6.75139">
        <ele>318.33</ele>
        <time>2021-03-20T06:50:12Z</time>
      </trkpt>
      <trkpt lat="49.11856" lon="6.75111">
        <ele>317.85</ele>
        <time>2021-03-20T06:50:29Z</time>
      </trkpt>
      <trkpt lat="49.11862" lon="6.75092">
        <ele>317.85</ele>
        <time>2021-03-20T06:50:40Z</time>
      </trkpt>
      <trkpt lat="49.11866" lon="6.75075">
        <ele>317.37</ele>
        <time>2021-03-20T06:50:50Z</time>
      </trkpt>
      <trkpt lat="49.11869" lon="6.75066">
        <ele>317.37</ele>
        <time>2021-03-20T06:50:56Z</time>
      </trkpt>
      <trkpt lat="49.11874" lon="6.75054">
        <ele>316.89</ele>
        <time>2021-03-20T06:51:04Z</time>
      </trkpt>
      <trkpt lat="49.11878" lon="6.75044">
        <ele>316.89</ele>
        <time>2021-03-20T06:51:10Z</time>
      </trkpt>
      <trkpt lat="49.11887" lon="6.75018">
        <ele>317.85</ele>
        <time>2021-03-20T06:51:25Z</time>
      </trkpt>
      <trkpt lat="49.11896" lon="6.74986">
        <ele>317.37</ele>
        <time>2021-03-20T06:51:40Z</time>
      </trkpt>
      <trkpt lat="49.11896" lon="6.74984">
        <ele>317.85</ele>
        <time>2021-03-20T06:51:41Z</time>
      </trkpt>
      <trkpt lat="49.11906" lon="6.74948">
        <ele>316.41</ele>
        <time>2021-03-20T06:51:58Z</time>
      </trkpt>
      <trkpt lat="49.11909" lon="6.74935">
        <ele>315.93</ele>
        <time>2021-03-20T06:52:05Z</time>
      </trkpt>
      <trkpt lat="49.11911" lon="6.74929">
        <ele>315.93</ele>
        <time>2021-03-20T06:52:09Z</time>
      </trkpt>
      <trkpt lat="49.11917" lon="6.74916">
        <ele>315.93</ele>
        <time>2021-03-20T06:52:17Z</time>
      </trkpt>
      <trkpt lat="49.11921" lon="6.74897">
        <ele>315.45</ele>
        <time>2021-03-20T06:52:27Z</time>
      </trkpt>
      <trkpt lat="49.11924" lon="6.74887">
        <ele>315.45</ele>
        <time>2021-03-20T06:52:33Z</time>
      </trkpt>
      <trkpt lat="49.11933" lon="6.74867">
        <ele>316.89</ele>
        <time>2021-03-20T06:52:45Z</time>
      </trkpt>
      <trkpt lat="49.11937" lon="6.7486">
        <ele>316.41</ele>
        <time>2021-03-20T06:52:50Z</time>
      </trkpt>
      <trkpt lat="49.11941" lon="6.74847">
        <ele>316.41</ele>
        <time>2021-03-20T06:52:57Z</time>
      </trkpt>
      <trkpt lat="49.11947" lon="6.74823">
        <ele>317.85</ele>
        <time>2021-03-20T06:53:12Z</time>
      </trkpt>
      <trkpt lat="49.11953" lon="6.74805">
        <ele>319.78</ele>
        <time>2021-03-20T06:53:22Z</time>
      </trkpt>
      <trkpt lat="49.11954" lon="6.74799">
        <ele>319.3</ele>
        <time>2021-03-20T06:53:25Z</time>
      </trkpt>
      <trkpt lat="49.11962" lon="6.74775">
        <ele>322.18</ele>
        <time>2021-03-20T06:53:40Z</time>
      </trkpt>
      <trkpt lat="49.11968" lon="6.74758">
        <ele>322.18</ele>
        <time>2021-03-20T06:53:49Z</time>
      </trkpt>
      <trkpt lat="49.11972" lon="6.74738">
        <ele>323.14</ele>
        <time>2021-03-20T06:54:00Z</time>
      </trkpt>
      <trkpt lat="49.11977" lon="6.7472">
        <ele>324.1</ele>
        <time>2021-03-20T06:54:10Z</time>
      </trkpt>
      <trkpt lat="49.1198" lon="6.74709">
        <ele>325.54</ele>
        <time>2021-03-20T06:54:17Z</time>
      </trkpt>
      <trkpt lat="49.11987" lon="6.74685">
        <ele>327.47</ele>
        <time>2021-03-20T06:54:31Z</time>
      </trkpt>
      <trkpt lat="49.11994" lon="6.74664">
        <ele>328.43</ele>
        <time>2021-03-20T06:54:44Z</time>
      </trkpt>
      <trkpt lat="49.11999" lon="6.74654">
        <ele>328.91</ele>
        <time>2021-03-20T06:54:52Z</time>
      </trkpt>
      <trkpt lat="49.12004" lon="6.74644">
        <ele>329.87</ele>
        <time>2021-03-20T06:55:00Z</time>
      </trkpt>
      <trkpt lat="49.12007" lon="6.74632">
        <ele>330.83</ele>
        <time>2021-03-20T06:55:06Z</time>
      </trkpt>
      <trkpt lat="49.12015" lon="6.74615">
        <ele>332.75</ele>
        <time>2021-03-20T06:55:17Z</time>
      </trkpt>
      <trkpt lat="49.12026" lon="6.7459">
        <ele>334.68</ele>
        <time>2021-03-20T06:55:31Z</time>
      </trkpt>
      <trkpt lat="49.12037" lon="6.74576">
        <ele>335.16</ele>
        <time>2021-03-20T06:55:43Z</time>
      </trkpt>
      <trkpt lat="49.12043" lon="6.74569">
        <ele>336.12</ele>
        <time>2021-03-20T06:55:48Z</time>
      </trkpt>
      <trkpt lat="49.12057" lon="6.74551">
        <ele>337.56</ele>
        <time>2021-03-20T06:56:02Z</time>
      </trkpt>
      <trkpt lat="49.12069" lon="6.74543">
        <ele>338.04</ele>
        <time>2021-03-20T06:56:15Z</time>
      </trkpt>
      <trkpt lat="49.12074" lon="6.74539">
        <ele>339</ele>
        <time>2021-03-20T06:56:22Z</time>
      </trkpt>
      <trkpt lat="49.12077" lon="6.74535">
        <ele>339</ele>
        <time>2021-03-20T06:56:25Z</time>
      </trkpt>
      <trkpt lat="49.12086" lon="6.74526">
        <ele>339.48</ele>
        <time>2021-03-20T06:56:32Z</time>
      </trkpt>
      <trkpt lat="49.12098" lon="6.7451">
        <ele>339.96</ele>
        <time>2021-03-20T06:56:42Z</time>
      </trkpt>
      <trkpt lat="49.12102" lon="6.74504">
        <ele>339.96</ele>
        <time>2021-03-20T06:56:46Z</time>
      </trkpt>
      <trkpt lat="49.12108" lon="6.7448">
        <ele>339.48</ele>
        <time>2021-03-20T06:56:59Z</time>
      </trkpt>
      <trkpt lat="49.12116" lon="6.74455">
        <ele>339.96</ele>
        <time>2021-03-20T06:57:13Z</time>
      </trkpt>
      <trkpt lat="49.12122" lon="6.74432">
        <ele>339.96</ele>
        <time>2021-03-20T06:57:25Z</time>
      </trkpt>
      <trkpt lat="49.12125" lon="6.74424">
        <ele>339.48</ele>
        <time>2021-03-20T06:57:29Z</time>
      </trkpt>
      <trkpt lat="49.12126" lon="6.7442">
        <ele>339.48</ele>
        <time>2021-03-20T06:57:31Z</time>
      </trkpt>
      <trkpt lat="49.12127" lon="6.74411">
        <ele>339.48</ele>
        <time>2021-03-20T06:57:35Z</time>
      </trkpt>
      <trkpt lat="49.1213" lon="6.74392">
        <ele>338.52</ele>
        <time>2021-03-20T06:57:43Z</time>
      </trkpt>
      <trkpt lat="49.12136" lon="6.74369">
        <ele>338.52</ele>
        <time>2021-03-20T06:57:58Z</time>
      </trkpt>
      <trkpt lat="49.12148" lon="6.74339">
        <ele>339.48</ele>
        <time>2021-03-20T06:58:14Z</time>
      </trkpt>
      <trkpt lat="49.12158" lon="6.74317">
        <ele>339.48</ele>
        <time>2021-03-20T06:58:27Z</time>
      </trkpt>
      <trkpt lat="49.12163" lon="6.74304">
        <ele>339.48</ele>
        <time>2021-03-20T06:58:33Z</time>
      </trkpt>
      <trkpt lat="49.12165" lon="6.74292">
        <ele>338.52</ele>
        <time>2021-03-20T06:58:39Z</time>
      </trkpt>
      <trkpt lat="49.12172" lon="6.74261">
        <ele>338.52</ele>
        <time>2021-03-20T06:58:53Z</time>
      </trkpt>
      <trkpt lat="49.12176" lon="6.74254">
        <ele>338.52</ele>
        <time>2021-03-20T06:58:59Z</time>
      </trkpt>
      <trkpt lat="49.12182" lon="6.74231">
        <ele>337.08</ele>
        <time>2021-03-20T06:59:11Z</time>
      </trkpt>
      <trkpt lat="49.12191" lon="6.742">
        <ele>334.68</ele>
        <time>2021-03-20T06:59:26Z</time>
      </trkpt>
      <trkpt lat="49.12198" lon="6.74182">
        <ele>332.75</ele>
        <time>2021-03-20T06:59:37Z</time>
      </trkpt>
      <trkpt lat="49.12205" lon="6.74166">
        <ele>330.35</ele>
        <time>2021-03-20T06:59:47Z</time>
      </trkpt>
      <trkpt lat="49.12208" lon="6.74158">
        <ele>329.39</ele>
        <time>2021-03-20T06:59:52Z</time>
      </trkpt>
      <trkpt lat="49.12211" lon="6.74155">
        <ele>328.91</ele>
        <time>2021-03-20T06:59:55Z</time>
      </trkpt>
      <trkpt lat="49.12214" lon="6.74149">
        <ele>327.95</ele>
        <time>2021-03-20T06:59:59Z</time>
      </trkpt>
      <trkpt lat="49.12221" lon="6.74128">
        <ele>326.02</ele>
        <time>2021-03-20T07:00:11Z</time>
      </trkpt>
      <trkpt lat="49.12222" lon="6.74126">
        <ele>326.5</ele>
        <time>2021-03-20T07:00:12Z</time>
      </trkpt>
      <trkpt lat="49.12225" lon="6.74118">
        <ele>325.54</ele>
        <time>2021-03-20T07:00:16Z</time>
      </trkpt>
      <trkpt lat="49.12232" lon="6.74087">
        <ele>323.62</ele>
        <time>2021-03-20T07:00:31Z</time>
      </trkpt>
      <trkpt lat="49.12233" lon="6.74085">
        <ele>324.1</ele>
        <time>2021-03-20T07:00:32Z</time>
      </trkpt>
      <trkpt lat="49.12235" lon="6.74075">
        <ele>323.62</ele>
        <time>2021-03-20T07:00:36Z</time>
      </trkpt>
      <trkpt lat="49.12242" lon="6.7405">
        <ele>323.14</ele>
        <time>2021-03-20T07:00:48Z</time>
      </trkpt>
      <trkpt lat="49.12244" lon="6.74046">
        <ele>322.66</ele>
        <time>2021-03-20T07:00:50Z</time>
      </trkpt>
      <trkpt lat="49.12251" lon="6.74032">
        <ele>322.66</ele>
        <time>2021-03-20T07:00:57Z</time>
      </trkpt>
      <trkpt lat="49.12265" lon="6.74014">
        <ele>322.18</ele>
        <time>2021-03-20T07:01:10Z</time>
      </trkpt>
      <trkpt lat="49.12276" lon="6.73992">
        <ele>321.7</ele>
        <time>2021-03-20T07:01:23Z</time>
      </trkpt>
      <trkpt lat="49.12284" lon="6.73977">
        <ele>320.74</ele>
        <time>2021-03-20T07:01:32Z</time>
      </trkpt>
      <trkpt lat="49.12293" lon="6.73951">
        <ele>320.26</ele>
        <time>2021-03-20T07:01:45Z</time>
      </trkpt>
      <trkpt lat="49.12304" lon="6.73928">
        <ele>319.3</ele>
        <time>2021-03-20T07:01:57Z</time>
      </trkpt>
      <trkpt lat="49.12313" lon="6.73903">
        <ele>317.85</ele>
        <time>2021-03-20T07:02:09Z</time>
      </trkpt>
      <trkpt lat="49.12316" lon="6.73896">
        <ele>318.33</ele>
        <time>2021-03-20T07:02:13Z</time>
      </trkpt>
      <trkpt lat="49.12325" lon="6.73874">
        <ele>316.41</ele>
        <time>2021-03-20T07:02:24Z</time>
      </trkpt>
      <trkpt lat="49.12335" lon="6.73842">
        <ele>313.53</ele>
        <time>2021-03-20T07:02:41Z</time>
      </trkpt>
      <trkpt lat="49.12341" lon="6.73829">
        <ele>311.6</ele>
        <time>2021-03-20T07:02:49Z</time>
      </trkpt>
      <trkpt lat="49.12346" lon="6.73812">
        <ele>310.16</ele>
        <time>2021-03-20T07:03:00Z</time>
      </trkpt>
      <trkpt lat="49.12358" lon="6.73788">
        <ele>307.76</ele>
        <time>2021-03-20T07:03:15Z</time>
      </trkpt>
      <trkpt lat="49.12362" lon="6.73779">
        <ele>306.8</ele>
        <time>2021-03-20T07:03:21Z</time>
      </trkpt>
      <trkpt lat="49.12373" lon="6.7376">
        <ele>306.32</ele>
        <time>2021-03-20T07:03:34Z</time>
      </trkpt>
      <trkpt lat="49.1239" lon="6.73737">
        <ele>304.88</ele>
        <time>2021-03-20T07:03:52Z</time>
      </trkpt>
      <trkpt lat="49.12396" lon="6.7373">
        <ele>304.39</ele>
        <time>2021-03-20T07:03:57Z</time>
      </trkpt>
      <trkpt lat="49.124" lon="6.73722">
        <ele>304.39</ele>
        <time>2021-03-20T07:04:02Z</time>
      </trkpt>
      <trkpt lat="49.12419" lon="6.73699">
        <ele>304.39</ele>
        <time>2021-03-20T07:04:17Z</time>
      </trkpt>
      <trkpt lat="49.12422" lon="6.73695">
        <ele>304.88</ele>
        <time>2021-03-20T07:04:20Z</time>
      </trkpt>
      <trkpt lat="49.12422" lon="6.73673">
        <ele>304.88</ele>
        <time>2021-03-20T07:04:29Z</time>
      </trkpt>
      <trkpt lat="49.12411" lon="6.7364">
        <ele>304.88</ele>
        <time>2021-03-20T07:04:47Z</time>
      </trkpt>
      <trkpt lat="49.124" lon="6.73612">
        <ele>304.39</ele>
        <time>2021-03-20T07:05:03Z</time>
      </trkpt>
      <trkpt lat="49.12394" lon="6.73593">
        <ele>304.39</ele>
        <time>2021-03-20T07:05:13Z</time>
      </trkpt>
      <trkpt lat="49.1239" lon="6.73584">
        <ele>303.91</ele>
        <time>2021-03-20T07:05:17Z</time>
      </trkpt>
      <trkpt lat="49.12383" lon="6.73555">
        <ele>302.95</ele>
        <time>2021-03-20T07:05:32Z</time>
      </trkpt>
      <trkpt lat="49.12374" lon="6.73523">
        <ele>302.47</ele>
        <time>2021-03-20T07:05:47Z</time>
      </trkpt>
      <trkpt lat="49.12365" lon="6.73493">
        <ele>299.59</ele>
        <time>2021-03-20T07:06:02Z</time>
      </trkpt>
      <trkpt lat="49.12357" lon="6.73463">
        <ele>296.7</ele>
        <time>2021-03-20T07:06:18Z</time>
      </trkpt>
      <trkpt lat="49.12356" lon="6.7346">
        <ele>296.7</ele>
        <time>2021-03-20T07:06:20Z</time>
      </trkpt>
      <trkpt lat="49.12345" lon="6.7343">
        <ele>293.34</ele>
        <time>2021-03-20T07:06:36Z</time>
      </trkpt>
      <trkpt lat="49.12344" lon="6.73397">
        <ele>292.38</ele>
        <time>2021-03-20T07:06:53Z</time>
      </trkpt>
      <trkpt lat="49.12349" lon="6.73388">
        <ele>291.9</ele>
        <time>2021-03-20T07:06:59Z</time>
      </trkpt>
      <trkpt lat="49.12356" lon="6.73392">
        <ele>291.9</ele>
        <time>2021-03-20T07:07:13Z</time>
      </trkpt>
      <trkpt lat="49.12362" lon="6.73393">
        <ele>291.9</ele>
        <time>2021-03-20T07:07:18Z</time>
      </trkpt>
      <trkpt lat="49.12378" lon="6.73396">
        <ele>292.86</ele>
        <time>2021-03-20T07:07:32Z</time>
      </trkpt>
      <trkpt lat="49.12399" lon="6.73405">
        <ele>294.78</ele>
        <time>2021-03-20T07:07:50Z</time>
      </trkpt>
      <trkpt lat="49.1242" lon="6.73416">
        <ele>296.22</ele>
        <time>2021-03-20T07:08:06Z</time>
      </trkpt>
      <trkpt lat="49.12434" lon="6.73426">
        <ele>296.7</ele>
        <time>2021-03-20T07:08:18Z</time>
      </trkpt>
      <trkpt lat="49.1245" lon="6.73437">
        <ele>297.67</ele>
        <time>2021-03-20T07:08:32Z</time>
      </trkpt>
      <trkpt lat="49.12467" lon="6.73451">
        <ele>299.59</ele>
        <time>2021-03-20T07:08:47Z</time>
      </trkpt>
      <trkpt lat="49.12479" lon="6.73466">
        <ele>300.07</ele>
        <time>2021-03-20T07:09:01Z</time>
      </trkpt>
      <trkpt lat="49.12489" lon="6.73482">
        <ele>300.55</ele>
        <time>2021-03-20T07:09:13Z</time>
      </trkpt>
      <trkpt lat="49.12494" lon="6.73488">
        <ele>300.55</ele>
        <time>2021-03-20T07:09:17Z</time>
      </trkpt>
      <trkpt lat="49.12501" lon="6.73497">
        <ele>301.03</ele>
        <time>2021-03-20T07:09:23Z</time>
      </trkpt>
      <trkpt lat="49.1251" lon="6.73516">
        <ele>301.03</ele>
        <time>2021-03-20T07:09:37Z</time>
      </trkpt>
      <trkpt lat="49.1252" lon="6.73529">
        <ele>301.99</ele>
        <time>2021-03-20T07:09:51Z</time>
      </trkpt>
      <trkpt lat="49.12543" lon="6.73528">
        <ele>302.95</ele>
        <time>2021-03-20T07:10:04Z</time>
      </trkpt>
      <trkpt lat="49.12563" lon="6.73523">
        <ele>303.91</ele>
        <time>2021-03-20T07:10:15Z</time>
      </trkpt>
      <trkpt lat="49.12577" lon="6.73504">
        <ele>304.88</ele>
        <time>2021-03-20T07:10:31Z</time>
      </trkpt>
      <trkpt lat="49.12578" lon="6.73503">
        <ele>304.39</ele>
        <time>2021-03-20T07:10:32Z</time>
      </trkpt>
      <trkpt lat="49.12599" lon="6.7348">
        <ele>306.32</ele>
        <time>2021-03-20T07:10:49Z</time>
      </trkpt>
      <trkpt lat="49.12618" lon="6.73485">
        <ele>306.8</ele>
        <time>2021-03-20T07:11:04Z</time>
      </trkpt>
      <trkpt lat="49.12621" lon="6.73485">
        <ele>306.32</ele>
        <time>2021-03-20T07:11:20Z</time>
      </trkpt>
      <trkpt lat="49.12627" lon="6.73492">
        <ele>306.32</ele>
        <time>2021-03-20T07:11:37Z</time>
      </trkpt>
      <trkpt lat="49.12636" lon="6.73515">
        <ele>308.24</ele>
        <time>2021-03-20T07:11:53Z</time>
      </trkpt>
      <trkpt lat="49.12647" lon="6.73535">
        <ele>309.68</ele>
        <time>2021-03-20T07:12:08Z</time>
      </trkpt>
      <trkpt lat="49.1265" lon="6.73537">
        <ele>309.2</ele>
        <time>2021-03-20T07:12:14Z</time>
      </trkpt>
      <trkpt lat="49.12653" lon="6.73542">
        <ele>309.2</ele>
        <time>2021-03-20T07:12:18Z</time>
      </trkpt>
      <trkpt lat="49.12664" lon="6.73561">
        <ele>310.64</ele>
        <time>2021-03-20T07:12:32Z</time>
      </trkpt>
      <trkpt lat="49.12673" lon="6.73576">
        <ele>311.12</ele>
        <time>2021-03-20T07:12:43Z</time>
      </trkpt>
      <trkpt lat="49.12682" lon="6.73596">
        <ele>311.12</ele>
        <time>2021-03-20T07:12:57Z</time>
      </trkpt>
      <trkpt lat="49.12684" lon="6.73601">
        <ele>311.12</ele>
        <time>2021-03-20T07:13:00Z</time>
      </trkpt>
      <trkpt lat="49.12697" lon="6.73619">
        <ele>312.57</ele>
        <time>2021-03-20T07:13:13Z</time>
      </trkpt>
      <trkpt lat="49.12707" lon="6.73632">
        <ele>312.57</ele>
        <time>2021-03-20T07:13:22Z</time>
      </trkpt>
      <trkpt lat="49.12713" lon="6.73639">
        <ele>313.05</ele>
        <time>2021-03-20T07:13:29Z</time>
      </trkpt>
      <trkpt lat="49.12717" lon="6.73641">
        <ele>312.57</ele>
        <time>2021-03-20T07:13:32Z</time>
      </trkpt>
      <trkpt lat="49.12744" lon="6.73658">
        <ele>314.01</ele>
        <time>2021-03-20T07:13:52Z</time>
      </trkpt>
      <trkpt lat="49.12766" lon="6.73663">
        <ele>314.01</ele>
        <time>2021-03-20T07:14:07Z</time>
      </trkpt>
      <trkpt lat="49.1277" lon="6.73659">
        <ele>314.01</ele>
        <time>2021-03-20T07:14:11Z</time>
      </trkpt>
      <trkpt lat="49.12788" lon="6.73633">
        <ele>314.97</ele>
        <time>2021-03-20T07:14:27Z</time>
      </trkpt>
      <trkpt lat="49.12796" lon="6.73598">
        <ele>315.93</ele>
        <time>2021-03-20T07:14:44Z</time>
      </trkpt>
      <trkpt lat="49.12805" lon="6.73562">
        <ele>316.89</ele>
        <time>2021-03-20T07:15:03Z</time>
      </trkpt>
      <trkpt lat="49.12809" lon="6.73552">
        <ele>316.89</ele>
        <time>2021-03-20T07:15:09Z</time>
      </trkpt>
      <trkpt lat="49.12812" lon="6.73544">
        <ele>317.85</ele>
        <time>2021-03-20T07:15:13Z</time>
      </trkpt>
      <trkpt lat="49.12819" lon="6.73532">
        <ele>317.85</ele>
        <time>2021-03-20T07:15:22Z</time>
      </trkpt>
      <trkpt lat="49.12842" lon="6.73532">
        <ele>319.3</ele>
        <time>2021-03-20T07:15:39Z</time>
      </trkpt>
      <trkpt lat="49.12856" lon="6.7354">
        <ele>320.26</ele>
        <time>2021-03-20T07:15:54Z</time>
      </trkpt>
      <trkpt lat="49.12865" lon="6.7355">
        <ele>320.74</ele>
        <time>2021-03-20T07:16:06Z</time>
      </trkpt>
      <trkpt lat="49.12872" lon="6.73561">
        <ele>321.22</ele>
        <time>2021-03-20T07:16:18Z</time>
      </trkpt>
      <trkpt lat="49.12881" lon="6.73576">
        <ele>322.18</ele>
        <time>2021-03-20T07:16:30Z</time>
      </trkpt>
      <trkpt lat="49.12901" lon="6.73591">
        <ele>322.18</ele>
        <time>2021-03-20T07:16:42Z</time>
      </trkpt>
      <trkpt lat="49.12909" lon="6.73612">
        <ele>323.14</ele>
        <time>2021-03-20T07:16:53Z</time>
      </trkpt>
      <trkpt lat="49.12915" lon="6.73629">
        <ele>324.1</ele>
        <time>2021-03-20T07:17:05Z</time>
      </trkpt>
      <trkpt lat="49.12922" lon="6.73648">
        <ele>324.1</ele>
        <time>2021-03-20T07:17:18Z</time>
      </trkpt>
      <trkpt lat="49.12932" lon="6.73666">
        <ele>325.06</ele>
        <time>2021-03-20T07:17:30Z</time>
      </trkpt>
      <trkpt lat="49.12944" lon="6.73685">
        <ele>326.5</ele>
        <time>2021-03-20T07:17:42Z</time>
      </trkpt>
      <trkpt lat="49.1295" lon="6.73702">
        <ele>326.99</ele>
        <time>2021-03-20T07:17:54Z</time>
      </trkpt>
      <trkpt lat="49.12957" lon="6.73724">
        <ele>327.47</ele>
        <time>2021-03-20T07:18:08Z</time>
      </trkpt>
      <trkpt lat="49.1296" lon="6.73733">
        <ele>327.95</ele>
        <time>2021-03-20T07:18:13Z</time>
      </trkpt>
      <trkpt lat="49.12977" lon="6.73765">
        <ele>327.95</ele>
        <time>2021-03-20T07:18:31Z</time>
      </trkpt>
      <trkpt lat="49.12989" lon="6.7378">
        <ele>328.91</ele>
        <time>2021-03-20T07:18:43Z</time>
      </trkpt>
      <trkpt lat="49.13007" lon="6.73799">
        <ele>329.39</ele>
        <time>2021-03-20T07:18:58Z</time>
      </trkpt>
      <trkpt lat="49.13033" lon="6.73822">
        <ele>329.87</ele>
        <time>2021-03-20T07:19:16Z</time>
      </trkpt>
      <trkpt lat="49.13052" lon="6.73835">
        <ele>329.39</ele>
        <time>2021-03-20T07:19:31Z</time>
      </trkpt>
      <trkpt lat="49.13068" lon="6.73851">
        <ele>329.87</ele>
        <time>2021-03-20T07:19:44Z</time>
      </trkpt>
      <trkpt lat="49.13078" lon="6.7387">
        <ele>330.35</ele>
        <time>2021-03-20T07:20:00Z</time>
      </trkpt>
      <trkpt lat="49.13091" lon="6.73893">
        <ele>330.35</ele>
        <time>2021-03-20T07:20:15Z</time>
      </trkpt>
      <trkpt lat="49.13107" lon="6.73916">
        <ele>330.35</ele>
        <time>2021-03-20T07:20:29Z</time>
      </trkpt>
      <trkpt lat="49.13125" lon="6.73923">
        <ele>329.87</ele>
        <time>2021-03-20T07:20:43Z</time>
      </trkpt>
      <trkpt lat="49.13126" lon="6.73924">
        <ele>330.35</ele>
        <time>2021-03-20T07:20:44Z</time>
      </trkpt>
      <trkpt lat="49.13134" lon="6.73924">
        <ele>329.39</ele>
        <time>2021-03-20T07:20:58Z</time>
      </trkpt>
      <trkpt lat="49.13134" lon="6.73928">
        <ele>329.39</ele>
        <time>2021-03-20T07:21:15Z</time>
      </trkpt>
      <trkpt lat="49.13135" lon="6.73927">
        <ele>330.35</ele>
        <time>2021-03-20T07:21:29Z</time>
      </trkpt>
      <trkpt lat="49.13136" lon="6.73926">
        <ele>328.91</ele>
        <time>2021-03-20T07:21:47Z</time>
      </trkpt>
      <trkpt lat="49.13134" lon="6.73926">
        <ele>329.87</ele>
        <time>2021-03-20T07:22:02Z</time>
      </trkpt>
      <trkpt lat="49.13134" lon="6.73926">
        <ele>328.43</ele>
        <time>2021-03-20T07:22:04Z</time>
      </trkpt>
      <trkpt lat="49.13132" lon="6.73928">
        <ele>328.43</ele>
        <time>2021-03-20T07:22:33Z</time>
      </trkpt>
      <trkpt lat="49.13136" lon="6.73928">
        <ele>327.95</ele>
        <time>2021-03-20T07:23:14Z</time>
      </trkpt>
      <trkpt lat="49.13138" lon="6.73928">
        <ele>328.43</ele>
        <time>2021-03-20T07:23:55Z</time>
      </trkpt>
      <trkpt lat="49.13133" lon="6.73927">
        <ele>329.39</ele>
        <time>2021-03-20T07:24:35Z</time>
      </trkpt>
      <trkpt lat="49.13136" lon="6.73931">
        <ele>329.39</ele>
        <time>2021-03-20T07:25:23Z</time>
      </trkpt>
      <trkpt lat="49.13135" lon="6.73931">
        <ele>328.91</ele>
        <time>2021-03-20T07:25:59Z</time>
      </trkpt>
      <trkpt lat="49.13135" lon="6.73927">
        <ele>329.39</ele>
        <time>2021-03-20T07:26:26Z</time>
      </trkpt>
      <trkpt lat="49.13135" lon="6.73924">
        <ele>330.35</ele>
        <time>2021-03-20T07:26:47Z</time>
      </trkpt>
      <trkpt lat="49.13134" lon="6.73923">
        <ele>329.87</ele>
        <time>2021-03-20T07:27:06Z</time>
      </trkpt>
      <trkpt lat="49.13132" lon="6.73937">
        <ele>330.35</ele>
        <time>2021-03-20T07:27:19Z</time>
      </trkpt>
      <trkpt lat="49.13134" lon="6.73948">
        <ele>330.35</ele>
        <time>2021-03-20T07:27:29Z</time>
      </trkpt>
      <trkpt lat="49.13136" lon="6.73951">
        <ele>330.35</ele>
        <time>2021-03-20T07:27:31Z</time>
      </trkpt>
      <trkpt lat="49.13144" lon="6.73972">
        <ele>330.83</ele>
        <time>2021-03-20T07:27:43Z</time>
      </trkpt>
      <trkpt lat="49.13151" lon="6.74001">
        <ele>331.31</ele>
        <time>2021-03-20T07:27:58Z</time>
      </trkpt>
      <trkpt lat="49.13152" lon="6.74022">
        <ele>331.31</ele>
        <time>2021-03-20T07:28:08Z</time>
      </trkpt>
      <trkpt lat="49.13151" lon="6.7403">
        <ele>331.31</ele>
        <time>2021-03-20T07:28:12Z</time>
      </trkpt>
      <trkpt lat="49.13157" lon="6.74062">
        <ele>331.79</ele>
        <time>2021-03-20T07:28:27Z</time>
      </trkpt>
      <trkpt lat="49.13156" lon="6.74077">
        <ele>332.27</ele>
        <time>2021-03-20T07:28:34Z</time>
      </trkpt>
      <trkpt lat="49.13159" lon="6.74101">
        <ele>332.27</ele>
        <time>2021-03-20T07:28:45Z</time>
      </trkpt>
      <trkpt lat="49.13157" lon="6.74139">
        <ele>332.27</ele>
        <time>2021-03-20T07:29:02Z</time>
      </trkpt>
      <trkpt lat="49.13155" lon="6.7415">
        <ele>332.27</ele>
        <time>2021-03-20T07:29:07Z</time>
      </trkpt>
      <trkpt lat="49.13155" lon="6.74154">
        <ele>331.79</ele>
        <time>2021-03-20T07:29:09Z</time>
      </trkpt>
      <trkpt lat="49.13154" lon="6.74162">
        <ele>332.75</ele>
        <time>2021-03-20T07:29:13Z</time>
      </trkpt>
      <trkpt lat="49.13152" lon="6.74183">
        <ele>333.23</ele>
        <time>2021-03-20T07:29:23Z</time>
      </trkpt>
      <trkpt lat="49.13161" lon="6.74217">
        <ele>333.71</ele>
        <time>2021-03-20T07:29:39Z</time>
      </trkpt>
      <trkpt lat="49.13169" lon="6.74237">
        <ele>334.68</ele>
        <time>2021-03-20T07:29:50Z</time>
      </trkpt>
      <trkpt lat="49.1317" lon="6.74239">
        <ele>334.68</ele>
        <time>2021-03-20T07:29:51Z</time>
      </trkpt>
      <trkpt lat="49.13177" lon="6.74264">
        <ele>334.68</ele>
        <time>2021-03-20T07:30:04Z</time>
      </trkpt>
      <trkpt lat="49.13178" lon="6.74266">
        <ele>335.16</ele>
        <time>2021-03-20T07:30:05Z</time>
      </trkpt>
      <trkpt lat="49.13178" lon="6.74269">
        <ele>335.64</ele>
        <time>2021-03-20T07:30:06Z</time>
      </trkpt>
      <trkpt lat="49.13178" lon="6.74271">
        <ele>335.16</ele>
        <time>2021-03-20T07:30:07Z</time>
      </trkpt>
      <trkpt lat="49.13178" lon="6.74273">
        <ele>334.68</ele>
        <time>2021-03-20T07:30:08Z</time>
      </trkpt>
      <trkpt lat="49.13178" lon="6.74275">
        <ele>335.64</ele>
        <time>2021-03-20T07:30:09Z</time>
      </trkpt>
      <trkpt lat="49.13183" lon="6.74305">
        <ele>335.16</ele>
        <time>2021-03-20T07:30:25Z</time>
      </trkpt>
      <trkpt lat="49.13186" lon="6.74319">
        <ele>336.12</ele>
        <time>2021-03-20T07:30:32Z</time>
      </trkpt>
      <trkpt lat="49.13187" lon="6.74324">
        <ele>336.6</ele>
        <time>2021-03-20T07:30:35Z</time>
      </trkpt>
      <trkpt lat="49.13188" lon="6.7434">
        <ele>337.08</ele>
        <time>2021-03-20T07:30:45Z</time>
      </trkpt>
      <trkpt lat="49.13188" lon="6.74342">
        <ele>336.12</ele>
        <time>2021-03-20T07:30:46Z</time>
      </trkpt>
      <trkpt lat="49.13187" lon="6.74344">
        <ele>336.12</ele>
        <time>2021-03-20T07:30:47Z</time>
      </trkpt>
      <trkpt lat="49.13194" lon="6.74368">
        <ele>336.6</ele>
        <time>2021-03-20T07:30:59Z</time>
      </trkpt>
      <trkpt lat="49.13203" lon="6.74391">
        <ele>337.56</ele>
        <time>2021-03-20T07:31:11Z</time>
      </trkpt>
      <trkpt lat="49.13203" lon="6.74393">
        <ele>337.56</ele>
        <time>2021-03-20T07:31:12Z</time>
      </trkpt>
      <trkpt lat="49.13204" lon="6.74395">
        <ele>337.56</ele>
        <time>2021-03-20T07:31:13Z</time>
      </trkpt>
      <trkpt lat="49.13204" lon="6.74397">
        <ele>337.56</ele>
        <time>2021-03-20T07:31:14Z</time>
      </trkpt>
      <trkpt lat="49.13204" lon="6.74399">
        <ele>338.04</ele>
        <time>2021-03-20T07:31:15Z</time>
      </trkpt>
      <trkpt lat="49.13208" lon="6.7441">
        <ele>338.52</ele>
        <time>2021-03-20T07:31:20Z</time>
      </trkpt>
      <trkpt lat="49.13209" lon="6.74413">
        <ele>338.52</ele>
        <time>2021-03-20T07:31:21Z</time>
      </trkpt>
      <trkpt lat="49.13209" lon="6.74415">
        <ele>338.04</ele>
        <time>2021-03-20T07:31:22Z</time>
      </trkpt>
      <trkpt lat="49.13209" lon="6.74417">
        <ele>338.04</ele>
        <time>2021-03-20T07:31:23Z</time>
      </trkpt>
      <trkpt lat="49.13209" lon="6.74419">
        <ele>338.04</ele>
        <time>2021-03-20T07:31:24Z</time>
      </trkpt>
      <trkpt lat="49.13208" lon="6.74423">
        <ele>338.52</ele>
        <time>2021-03-20T07:31:26Z</time>
      </trkpt>
      <trkpt lat="49.13213" lon="6.74437">
        <ele>338.04</ele>
        <time>2021-03-20T07:31:37Z</time>
      </trkpt>
      <trkpt lat="49.13215" lon="6.7444">
        <ele>338.04</ele>
        <time>2021-03-20T07:31:58Z</time>
      </trkpt>
      <trkpt lat="49.13217" lon="6.7444">
        <ele>338.04</ele>
        <time>2021-03-20T07:32:00Z</time>
      </trkpt>
      <trkpt lat="49.13218" lon="6.74441">
        <ele>337.56</ele>
        <time>2021-03-20T07:32:01Z</time>
      </trkpt>
      <trkpt lat="49.13218" lon="6.74442">
        <ele>338.04</ele>
        <time>2021-03-20T07:32:02Z</time>
      </trkpt>
      <trkpt lat="49.13223" lon="6.74461">
        <ele>337.08</ele>
        <time>2021-03-20T07:32:16Z</time>
      </trkpt>
      <trkpt lat="49.13231" lon="6.74479">
        <ele>335.64</ele>
        <time>2021-03-20T07:32:31Z</time>
      </trkpt>
      <trkpt lat="49.13245" lon="6.745">
        <ele>334.68</ele>
        <time>2021-03-20T07:32:44Z</time>
      </trkpt>
      <trkpt lat="49.13268" lon="6.74524">
        <ele>333.23</ele>
        <time>2021-03-20T07:32:57Z</time>
      </trkpt>
      <trkpt lat="49.13278" lon="6.74543">
        <ele>331.31</ele>
        <time>2021-03-20T07:33:11Z</time>
      </trkpt>
      <trkpt lat="49.13286" lon="6.74562">
        <ele>329.39</ele>
        <time>2021-03-20T07:33:24Z</time>
      </trkpt>
      <trkpt lat="49.133" lon="6.74583">
        <ele>326.5</ele>
        <time>2021-03-20T07:33:37Z</time>
      </trkpt>
      <trkpt lat="49.13318" lon="6.74602">
        <ele>324.58</ele>
        <time>2021-03-20T07:33:50Z</time>
      </trkpt>
      <trkpt lat="49.13331" lon="6.74619">
        <ele>324.1</ele>
        <time>2021-03-20T07:34:04Z</time>
      </trkpt>
      <trkpt lat="49.13346" lon="6.74635">
        <ele>323.14</ele>
        <time>2021-03-20T07:34:15Z</time>
      </trkpt>
      <trkpt lat="49.13365" lon="6.74656">
        <ele>322.66</ele>
        <time>2021-03-20T07:34:30Z</time>
      </trkpt>
      <trkpt lat="49.13384" lon="6.74674">
        <ele>322.18</ele>
        <time>2021-03-20T07:34:44Z</time>
      </trkpt>
      <trkpt lat="49.13395" lon="6.74689">
        <ele>321.22</ele>
        <time>2021-03-20T07:34:55Z</time>
      </trkpt>
      <trkpt lat="49.13405" lon="6.74702">
        <ele>320.26</ele>
        <time>2021-03-20T07:35:05Z</time>
      </trkpt>
      <trkpt lat="49.13409" lon="6.74709">
        <ele>319.78</ele>
        <time>2021-03-20T07:35:12Z</time>
      </trkpt>
      <trkpt lat="49.1341" lon="6.74711">
        <ele>319.78</ele>
        <time>2021-03-20T07:35:13Z</time>
      </trkpt>
      <trkpt lat="49.13411" lon="6.74712">
        <ele>320.26</ele>
        <time>2021-03-20T07:35:14Z</time>
      </trkpt>
      <trkpt lat="49.13413" lon="6.74713">
        <ele>319.3</ele>
        <time>2021-03-20T07:35:15Z</time>
      </trkpt>
      <trkpt lat="49.13415" lon="6.74714">
        <ele>319.3</ele>
        <time>2021-03-20T07:35:16Z</time>
      </trkpt>
      <trkpt lat="49.13417" lon="6.74715">
        <ele>318.81</ele>
        <time>2021-03-20T07:35:17Z</time>
      </trkpt>
      <trkpt lat="49.13419" lon="6.74717">
        <ele>318.81</ele>
        <time>2021-03-20T07:35:18Z</time>
      </trkpt>
      <trkpt lat="49.1342" lon="6.74718">
        <ele>318.81</ele>
        <time>2021-03-20T07:35:19Z</time>
      </trkpt>
      <trkpt lat="49.13421" lon="6.7472">
        <ele>318.81</ele>
        <time>2021-03-20T07:35:20Z</time>
      </trkpt>
      <trkpt lat="49.13422" lon="6.74721">
        <ele>318.81</ele>
        <time>2021-03-20T07:35:21Z</time>
      </trkpt>
      <trkpt lat="49.13423" lon="6.74723">
        <ele>318.33</ele>
        <time>2021-03-20T07:35:22Z</time>
      </trkpt>
      <trkpt lat="49.13424" lon="6.74724">
        <ele>318.33</ele>
        <time>2021-03-20T07:35:23Z</time>
      </trkpt>
      <trkpt lat="49.13426" lon="6.74726">
        <ele>317.85</ele>
        <time>2021-03-20T07:35:24Z</time>
      </trkpt>
      <trkpt lat="49.13428" lon="6.74727">
        <ele>317.85</ele>
        <time>2021-03-20T07:35:25Z</time>
      </trkpt>
      <trkpt lat="49.13432" lon="6.74731">
        <ele>317.37</ele>
        <time>2021-03-20T07:35:28Z</time>
      </trkpt>
      <trkpt lat="49.13433" lon="6.74733">
        <ele>317.37</ele>
        <time>2021-03-20T07:35:30Z</time>
      </trkpt>
      <trkpt lat="49.13445" lon="6.74749">
        <ele>316.41</ele>
        <time>2021-03-20T07:35:44Z</time>
      </trkpt>
      <trkpt lat="49.1345" lon="6.74758">
        <ele>315.93</ele>
        <time>2021-03-20T07:35:50Z</time>
      </trkpt>
      <trkpt lat="49.13452" lon="6.74761">
        <ele>315.93</ele>
        <time>2021-03-20T07:35:52Z</time>
      </trkpt>
      <trkpt lat="49.13454" lon="6.74762">
        <ele>315.93</ele>
        <time>2021-03-20T07:35:53Z</time>
      </trkpt>
      <trkpt lat="49.1346" lon="6.74769">
        <ele>315.45</ele>
        <time>2021-03-20T07:35:59Z</time>
      </trkpt>
      <trkpt lat="49.13461" lon="6.7477">
        <ele>314.97</ele>
        <time>2021-03-20T07:36:00Z</time>
      </trkpt>
      <trkpt lat="49.13462" lon="6.74771">
        <ele>314.97</ele>
        <time>2021-03-20T07:36:01Z</time>
      </trkpt>
      <trkpt lat="49.13463" lon="6.74773">
        <ele>314.97</ele>
        <time>2021-03-20T07:36:02Z</time>
      </trkpt>
      <trkpt lat="49.13464" lon="6.74774">
        <ele>314.97</ele>
        <time>2021-03-20T07:36:03Z</time>
      </trkpt>
      <trkpt lat="49.13485" lon="6.74788">
        <ele>314.49</ele>
        <time>2021-03-20T07:36:16Z</time>
      </trkpt>
      <trkpt lat="49.13505" lon="6.74809">
        <ele>313.53</ele>
        <time>2021-03-20T07:36:31Z</time>
      </trkpt>
      <trkpt lat="49.13519" lon="6.74822">
        <ele>313.05</ele>
        <time>2021-03-20T07:36:42Z</time>
      </trkpt>
      <trkpt lat="49.13538" lon="6.74842">
        <ele>311.12</ele>
        <time>2021-03-20T07:36:57Z</time>
      </trkpt>
      <trkpt lat="49.13541" lon="6.74849">
        <ele>311.12</ele>
        <time>2021-03-20T07:37:02Z</time>
      </trkpt>
      <trkpt lat="49.13556" lon="6.74871">
        <ele>309.68</ele>
        <time>2021-03-20T07:37:17Z</time>
      </trkpt>
      <trkpt lat="49.13561" lon="6.74887">
        <ele>308.24</ele>
        <time>2021-03-20T07:37:29Z</time>
      </trkpt>
      <trkpt lat="49.13563" lon="6.7489">
        <ele>308.72</ele>
        <time>2021-03-20T07:37:31Z</time>
      </trkpt>
      <trkpt lat="49.13565" lon="6.74895">
        <ele>307.76</ele>
        <time>2021-03-20T07:37:43Z</time>
      </trkpt>
      <trkpt lat="49.13567" lon="6.74893">
        <ele>307.76</ele>
        <time>2021-03-20T07:38:00Z</time>
      </trkpt>
      <trkpt lat="49.13571" lon="6.74893">
        <ele>308.24</ele>
        <time>2021-03-20T07:38:16Z</time>
      </trkpt>
      <trkpt lat="49.13574" lon="6.74898">
        <ele>307.76</ele>
        <time>2021-03-20T07:38:31Z</time>
      </trkpt>
      <trkpt lat="49.13583" lon="6.74912">
        <ele>307.28</ele>
        <time>2021-03-20T07:38:46Z</time>
      </trkpt>
      <trkpt lat="49.13585" lon="6.74916">
        <ele>306.32</ele>
        <time>2021-03-20T07:38:49Z</time>
      </trkpt>
      <trkpt lat="49.13586" lon="6.74918">
        <ele>307.28</ele>
        <time>2021-03-20T07:38:50Z</time>
      </trkpt>
      <trkpt lat="49.13589" lon="6.74922">
        <ele>305.84</ele>
        <time>2021-03-20T07:38:54Z</time>
      </trkpt>
      <trkpt lat="49.1359" lon="6.74923">
        <ele>305.36</ele>
        <time>2021-03-20T07:38:55Z</time>
      </trkpt>
      <trkpt lat="49.13591" lon="6.74924">
        <ele>304.88</ele>
        <time>2021-03-20T07:38:56Z</time>
      </trkpt>
      <trkpt lat="49.13592" lon="6.74926">
        <ele>305.36</ele>
        <time>2021-03-20T07:38:57Z</time>
      </trkpt>
      <trkpt lat="49.13593" lon="6.74927">
        <ele>305.36</ele>
        <time>2021-03-20T07:38:58Z</time>
      </trkpt>
      <trkpt lat="49.13607" lon="6.74943">
        <ele>304.88</ele>
        <time>2021-03-20T07:39:11Z</time>
      </trkpt>
      <trkpt lat="49.13611" lon="6.74949">
        <ele>304.88</ele>
        <time>2021-03-20T07:39:16Z</time>
      </trkpt>
      <trkpt lat="49.13624" lon="6.74967">
        <ele>302.95</ele>
        <time>2021-03-20T07:39:30Z</time>
      </trkpt>
      <trkpt lat="49.13631" lon="6.74978">
        <ele>303.43</ele>
        <time>2021-03-20T07:39:38Z</time>
      </trkpt>
      <trkpt lat="49.13632" lon="6.74979">
        <ele>302.95</ele>
        <time>2021-03-20T07:39:39Z</time>
      </trkpt>
      <trkpt lat="49.13633" lon="6.7498">
        <ele>302.95</ele>
        <time>2021-03-20T07:39:40Z</time>
      </trkpt>
      <trkpt lat="49.13645" lon="6.75001">
        <ele>301.03</ele>
        <time>2021-03-20T07:39:55Z</time>
      </trkpt>
      <trkpt lat="49.13658" lon="6.75017">
        <ele>300.55</ele>
        <time>2021-03-20T07:40:08Z</time>
      </trkpt>
      <trkpt lat="49.13673" lon="6.75035">
        <ele>299.11</ele>
        <time>2021-03-20T07:40:22Z</time>
      </trkpt>
      <trkpt lat="49.13689" lon="6.75054">
        <ele>297.67</ele>
        <time>2021-03-20T07:40:37Z</time>
      </trkpt>
      <trkpt lat="49.137" lon="6.7507">
        <ele>296.7</ele>
        <time>2021-03-20T07:40:52Z</time>
      </trkpt>
      <trkpt lat="49.13713" lon="6.75089">
        <ele>295.74</ele>
        <time>2021-03-20T07:41:08Z</time>
      </trkpt>
      <trkpt lat="49.13723" lon="6.75103">
        <ele>294.78</ele>
        <time>2021-03-20T07:41:19Z</time>
      </trkpt>
      <trkpt lat="49.13724" lon="6.75104">
        <ele>295.74</ele>
        <time>2021-03-20T07:41:20Z</time>
      </trkpt>
      <trkpt lat="49.13725" lon="6.75105">
        <ele>295.26</ele>
        <time>2021-03-20T07:41:21Z</time>
      </trkpt>
      <trkpt lat="49.1373" lon="6.7511">
        <ele>294.78</ele>
        <time>2021-03-20T07:41:25Z</time>
      </trkpt>
      <trkpt lat="49.13732" lon="6.75111">
        <ele>294.78</ele>
        <time>2021-03-20T07:41:26Z</time>
      </trkpt>
      <trkpt lat="49.13734" lon="6.75112">
        <ele>294.78</ele>
        <time>2021-03-20T07:41:27Z</time>
      </trkpt>
      <trkpt lat="49.13749" lon="6.75129">
        <ele>294.3</ele>
        <time>2021-03-20T07:41:40Z</time>
      </trkpt>
      <trkpt lat="49.13762" lon="6.75151">
        <ele>294.3</ele>
        <time>2021-03-20T07:41:53Z</time>
      </trkpt>
      <trkpt lat="49.13762" lon="6.75152">
        <ele>294.78</ele>
        <time>2021-03-20T07:41:54Z</time>
      </trkpt>
      <trkpt lat="49.13771" lon="6.75161">
        <ele>294.78</ele>
        <time>2021-03-20T07:42:02Z</time>
      </trkpt>
      <trkpt lat="49.13775" lon="6.75168">
        <ele>294.78</ele>
        <time>2021-03-20T07:42:05Z</time>
      </trkpt>
      <trkpt lat="49.13776" lon="6.7517">
        <ele>295.74</ele>
        <time>2021-03-20T07:42:06Z</time>
      </trkpt>
      <trkpt lat="49.13777" lon="6.75172">
        <ele>294.78</ele>
        <time>2021-03-20T07:42:07Z</time>
      </trkpt>
      <trkpt lat="49.13782" lon="6.75179">
        <ele>295.26</ele>
        <time>2021-03-20T07:42:11Z</time>
      </trkpt>
      <trkpt lat="49.13788" lon="6.75195">
        <ele>295.74</ele>
        <time>2021-03-20T07:42:20Z</time>
      </trkpt>
      <trkpt lat="49.13792" lon="6.75204">
        <ele>294.78</ele>
        <time>2021-03-20T07:42:24Z</time>
      </trkpt>
      <trkpt lat="49.13788" lon="6.75212">
        <ele>296.22</ele>
        <time>2021-03-20T07:42:33Z</time>
      </trkpt>
      <trkpt lat="49.13775" lon="6.75226">
        <ele>296.7</ele>
        <time>2021-03-20T07:42:45Z</time>
      </trkpt>
      <trkpt lat="49.13762" lon="6.75246">
        <ele>296.7</ele>
        <time>2021-03-20T07:42:58Z</time>
      </trkpt>
      <trkpt lat="49.13761" lon="6.75248">
        <ele>297.18</ele>
        <time>2021-03-20T07:42:59Z</time>
      </trkpt>
      <trkpt lat="49.13754" lon="6.75274">
        <ele>296.22</ele>
        <time>2021-03-20T07:43:11Z</time>
      </trkpt>
      <trkpt lat="49.13751" lon="6.75295">
        <ele>295.74</ele>
        <time>2021-03-20T07:43:25Z</time>
      </trkpt>
      <trkpt lat="49.1375" lon="6.753">
        <ele>295.74</ele>
        <time>2021-03-20T07:43:27Z</time>
      </trkpt>
      <trkpt lat="49.13748" lon="6.75314">
        <ele>294.78</ele>
        <time>2021-03-20T07:43:33Z</time>
      </trkpt>
      <trkpt lat="49.13743" lon="6.75341">
        <ele>292.86</ele>
        <time>2021-03-20T07:43:47Z</time>
      </trkpt>
      <trkpt lat="49.13742" lon="6.75342">
        <ele>292.86</ele>
        <time>2021-03-20T07:43:48Z</time>
      </trkpt>
      <trkpt lat="49.13727" lon="6.75349">
        <ele>291.9</ele>
        <time>2021-03-20T07:44:00Z</time>
      </trkpt>
      <trkpt lat="49.13713" lon="6.75359">
        <ele>289.01</ele>
        <time>2021-03-20T07:44:15Z</time>
      </trkpt>
      <trkpt lat="49.13701" lon="6.75358">
        <ele>287.57</ele>
        <time>2021-03-20T07:44:29Z</time>
      </trkpt>
      <trkpt lat="49.13688" lon="6.7536">
        <ele>286.13</ele>
        <time>2021-03-20T07:44:40Z</time>
      </trkpt>
      <trkpt lat="49.13686" lon="6.7536">
        <ele>287.09</ele>
        <time>2021-03-20T07:44:41Z</time>
      </trkpt>
      <trkpt lat="49.13682" lon="6.75359">
        <ele>287.09</ele>
        <time>2021-03-20T07:44:44Z</time>
      </trkpt>
      <trkpt lat="49.13666" lon="6.75361">
        <ele>287.57</ele>
        <time>2021-03-20T07:44:59Z</time>
      </trkpt>
      <trkpt lat="49.13665" lon="6.75362">
        <ele>288.05</ele>
        <time>2021-03-20T07:45:00Z</time>
      </trkpt>
      <trkpt lat="49.13659" lon="6.75382">
        <ele>288.53</ele>
        <time>2021-03-20T07:45:14Z</time>
      </trkpt>
      <trkpt lat="49.1366" lon="6.75389">
        <ele>289.01</ele>
        <time>2021-03-20T07:45:18Z</time>
      </trkpt>
      <trkpt lat="49.13659" lon="6.75398">
        <ele>289.49</ele>
        <time>2021-03-20T07:45:22Z</time>
      </trkpt>
      <trkpt lat="49.13659" lon="6.75406">
        <ele>289.97</ele>
        <time>2021-03-20T07:45:26Z</time>
      </trkpt>
      <trkpt lat="49.13659" lon="6.75408">
        <ele>290.46</ele>
        <time>2021-03-20T07:45:27Z</time>
      </trkpt>
      <trkpt lat="49.1366" lon="6.7541">
        <ele>290.46</ele>
        <time>2021-03-20T07:45:28Z</time>
      </trkpt>
      <trkpt lat="49.1366" lon="6.75423">
        <ele>291.9</ele>
        <time>2021-03-20T07:45:34Z</time>
      </trkpt>
      <trkpt lat="49.13658" lon="6.75445">
        <ele>294.3</ele>
        <time>2021-03-20T07:45:47Z</time>
      </trkpt>
      <trkpt lat="49.13654" lon="6.75476">
        <ele>296.22</ele>
        <time>2021-03-20T07:46:03Z</time>
      </trkpt>
      <trkpt lat="49.13648" lon="6.75494">
        <ele>298.15</ele>
        <time>2021-03-20T07:46:16Z</time>
      </trkpt>
      <trkpt lat="49.13638" lon="6.75522">
        <ele>300.55</ele>
        <time>2021-03-20T07:46:32Z</time>
      </trkpt>
      <trkpt lat="49.1363" lon="6.75543">
        <ele>302.95</ele>
        <time>2021-03-20T07:46:45Z</time>
      </trkpt>
      <trkpt lat="49.13621" lon="6.75566">
        <ele>304.88</ele>
        <time>2021-03-20T07:46:59Z</time>
      </trkpt>
      <trkpt lat="49.13611" lon="6.75589">
        <ele>304.88</ele>
        <time>2021-03-20T07:47:14Z</time>
      </trkpt>
      <trkpt lat="49.13595" lon="6.7562">
        <ele>304.39</ele>
        <time>2021-03-20T07:47:29Z</time>
      </trkpt>
      <trkpt lat="49.13587" lon="6.75644">
        <ele>302.95</ele>
        <time>2021-03-20T07:47:42Z</time>
      </trkpt>
      <trkpt lat="49.13578" lon="6.75659">
        <ele>302.95</ele>
        <time>2021-03-20T07:47:52Z</time>
      </trkpt>
      <trkpt lat="49.13577" lon="6.7566">
        <ele>302.47</ele>
        <time>2021-03-20T07:47:53Z</time>
      </trkpt>
      <trkpt lat="49.13574" lon="6.75662">
        <ele>302.47</ele>
        <time>2021-03-20T07:47:55Z</time>
      </trkpt>
      <trkpt lat="49.13558" lon="6.75686">
        <ele>301.99</ele>
        <time>2021-03-20T07:48:09Z</time>
      </trkpt>
      <trkpt lat="49.13543" lon="6.75709">
        <ele>302.47</ele>
        <time>2021-03-20T07:48:24Z</time>
      </trkpt>
      <trkpt lat="49.13529" lon="6.75741">
        <ele>303.43</ele>
        <time>2021-03-20T07:48:42Z</time>
      </trkpt>
      <trkpt lat="49.13519" lon="6.75756">
        <ele>303.91</ele>
        <time>2021-03-20T07:48:53Z</time>
      </trkpt>
      <trkpt lat="49.13518" lon="6.75757">
        <ele>304.39</ele>
        <time>2021-03-20T07:48:54Z</time>
      </trkpt>
      <trkpt lat="49.1351" lon="6.75764">
        <ele>305.36</ele>
        <time>2021-03-20T07:49:02Z</time>
      </trkpt>
      <trkpt lat="49.13488" lon="6.75767">
        <ele>306.8</ele>
        <time>2021-03-20T07:49:18Z</time>
      </trkpt>
      <trkpt lat="49.13469" lon="6.75762">
        <ele>305.84</ele>
        <time>2021-03-20T07:49:32Z</time>
      </trkpt>
      <trkpt lat="49.13466" lon="6.75746">
        <ele>305.84</ele>
        <time>2021-03-20T07:49:44Z</time>
      </trkpt>
      <trkpt lat="49.13465" lon="6.75731">
        <ele>305.84</ele>
        <time>2021-03-20T07:49:54Z</time>
      </trkpt>
      <trkpt lat="49.13464" lon="6.75712">
        <ele>306.32</ele>
        <time>2021-03-20T07:50:01Z</time>
      </trkpt>
      <trkpt lat="49.13461" lon="6.75688">
        <ele>307.28</ele>
        <time>2021-03-20T07:50:13Z</time>
      </trkpt>
      <trkpt lat="49.13454" lon="6.75654">
        <ele>306.32</ele>
        <time>2021-03-20T07:50:29Z</time>
      </trkpt>
      <trkpt lat="49.13447" lon="6.75628">
        <ele>307.28</ele>
        <time>2021-03-20T07:50:46Z</time>
      </trkpt>
      <trkpt lat="49.13447" lon="6.75628">
        <ele>307.76</ele>
        <time>2021-03-20T07:50:47Z</time>
      </trkpt>
      <trkpt lat="49.13447" lon="6.75629">
        <ele>308.24</ele>
        <time>2021-03-20T07:50:59Z</time>
      </trkpt>
      <trkpt lat="49.13446" lon="6.75624">
        <ele>308.24</ele>
        <time>2021-03-20T07:51:02Z</time>
      </trkpt>
      <trkpt lat="49.13438" lon="6.75588">
        <ele>307.76</ele>
        <time>2021-03-20T07:51:17Z</time>
      </trkpt>
      <trkpt lat="49.13435" lon="6.75552">
        <ele>310.16</ele>
        <time>2021-03-20T07:51:30Z</time>
      </trkpt>
      <trkpt lat="49.13428" lon="6.75519">
        <ele>311.12</ele>
        <time>2021-03-20T07:51:45Z</time>
      </trkpt>
      <trkpt lat="49.13423" lon="6.75506">
        <ele>311.6</ele>
        <time>2021-03-20T07:51:52Z</time>
      </trkpt>
      <trkpt lat="49.1341" lon="6.75476">
        <ele>312.09</ele>
        <time>2021-03-20T07:52:09Z</time>
      </trkpt>
      <trkpt lat="49.13402" lon="6.75453">
        <ele>312.57</ele>
        <time>2021-03-20T07:52:22Z</time>
      </trkpt>
      <trkpt lat="49.13392" lon="6.75425">
        <ele>314.49</ele>
        <time>2021-03-20T07:52:37Z</time>
      </trkpt>
      <trkpt lat="49.13391" lon="6.75423">
        <ele>314.01</ele>
        <time>2021-03-20T07:52:38Z</time>
      </trkpt>
      <trkpt lat="49.13383" lon="6.75397">
        <ele>314.97</ele>
        <time>2021-03-20T07:52:51Z</time>
      </trkpt>
      <trkpt lat="49.13379" lon="6.75385">
        <ele>315.45</ele>
        <time>2021-03-20T07:52:57Z</time>
      </trkpt>
      <trkpt lat="49.13369" lon="6.7535">
        <ele>315.93</ele>
        <time>2021-03-20T07:53:15Z</time>
      </trkpt>
      <trkpt lat="49.13365" lon="6.75318">
        <ele>316.89</ele>
        <time>2021-03-20T07:53:32Z</time>
      </trkpt>
      <trkpt lat="49.13364" lon="6.75312">
        <ele>316.89</ele>
        <time>2021-03-20T07:53:36Z</time>
      </trkpt>
      <trkpt lat="49.1336" lon="6.75303">
        <ele>316.89</ele>
        <time>2021-03-20T07:53:41Z</time>
      </trkpt>
      <trkpt lat="49.13359" lon="6.75299">
        <ele>316.41</ele>
        <time>2021-03-20T07:53:44Z</time>
      </trkpt>
      <trkpt lat="49.13352" lon="6.75271">
        <ele>317.85</ele>
        <time>2021-03-20T07:53:59Z</time>
      </trkpt>
      <trkpt lat="49.13341" lon="6.75243">
        <ele>317.85</ele>
        <time>2021-03-20T07:54:15Z</time>
      </trkpt>
      <trkpt lat="49.1333" lon="6.75218">
        <ele>317.85</ele>
        <time>2021-03-20T07:54:30Z</time>
      </trkpt>
      <trkpt lat="49.13317" lon="6.75196">
        <ele>318.81</ele>
        <time>2021-03-20T07:54:44Z</time>
      </trkpt>
      <trkpt lat="49.13301" lon="6.75173">
        <ele>319.78</ele>
        <time>2021-03-20T07:55:00Z</time>
      </trkpt>
      <trkpt lat="49.13288" lon="6.75155">
        <ele>320.26</ele>
        <time>2021-03-20T07:55:15Z</time>
      </trkpt>
      <trkpt lat="49.13271" lon="6.75135">
        <ele>319.78</ele>
        <time>2021-03-20T07:55:29Z</time>
      </trkpt>
      <trkpt lat="49.13259" lon="6.75113">
        <ele>321.22</ele>
        <time>2021-03-20T07:55:43Z</time>
      </trkpt>
      <trkpt lat="49.13247" lon="6.75083">
        <ele>323.14</ele>
        <time>2021-03-20T07:55:58Z</time>
      </trkpt>
      <trkpt lat="49.13234" lon="6.75059">
        <ele>324.58</ele>
        <time>2021-03-20T07:56:14Z</time>
      </trkpt>
      <trkpt lat="49.13231" lon="6.75053">
        <ele>324.58</ele>
        <time>2021-03-20T07:56:19Z</time>
      </trkpt>
      <trkpt lat="49.13224" lon="6.75048">
        <ele>325.54</ele>
        <time>2021-03-20T07:56:25Z</time>
      </trkpt>
      <trkpt lat="49.13208" lon="6.75031">
        <ele>325.06</ele>
        <time>2021-03-20T07:56:40Z</time>
      </trkpt>
      <trkpt lat="49.13193" lon="6.75018">
        <ele>326.02</ele>
        <time>2021-03-20T07:56:51Z</time>
      </trkpt>
      <trkpt lat="49.13172" lon="6.75001">
        <ele>326.5</ele>
        <time>2021-03-20T07:57:08Z</time>
      </trkpt>
      <trkpt lat="49.13154" lon="6.74984">
        <ele>326.99</ele>
        <time>2021-03-20T07:57:23Z</time>
      </trkpt>
      <trkpt lat="49.13147" lon="6.74979">
        <ele>327.47</ele>
        <time>2021-03-20T07:57:29Z</time>
      </trkpt>
      <trkpt lat="49.13138" lon="6.74976">
        <ele>327.95</ele>
        <time>2021-03-20T07:57:36Z</time>
      </trkpt>
      <trkpt lat="49.13129" lon="6.74972">
        <ele>328.43</ele>
        <time>2021-03-20T07:57:42Z</time>
      </trkpt>
      <trkpt lat="49.13111" lon="6.74955">
        <ele>327.95</ele>
        <time>2021-03-20T07:57:57Z</time>
      </trkpt>
      <trkpt lat="49.13097" lon="6.74937">
        <ele>326.99</ele>
        <time>2021-03-20T07:58:11Z</time>
      </trkpt>
      <trkpt lat="49.13088" lon="6.74927">
        <ele>326.5</ele>
        <time>2021-03-20T07:58:18Z</time>
      </trkpt>
      <trkpt lat="49.13073" lon="6.749">
        <ele>326.99</ele>
        <time>2021-03-20T07:58:35Z</time>
      </trkpt>
      <trkpt lat="49.13066" lon="6.74885">
        <ele>327.47</ele>
        <time>2021-03-20T07:58:51Z</time>
      </trkpt>
      <trkpt lat="49.13062" lon="6.74877">
        <ele>326.99</ele>
        <time>2021-03-20T07:59:02Z</time>
      </trkpt>
      <trkpt lat="49.13058" lon="6.74869">
        <ele>326.99</ele>
        <time>2021-03-20T07:59:09Z</time>
      </trkpt>
      <trkpt lat="49.13055" lon="6.74837">
        <ele>327.47</ele>
        <time>2021-03-20T07:59:23Z</time>
      </trkpt>
      <trkpt lat="49.13054" lon="6.74807">
        <ele>327.95</ele>
        <time>2021-03-20T07:59:37Z</time>
      </trkpt>
      <trkpt lat="49.13055" lon="6.74779">
        <ele>329.39</ele>
        <time>2021-03-20T07:59:50Z</time>
      </trkpt>
      <trkpt lat="49.13057" lon="6.74758">
        <ele>329.87</ele>
        <time>2021-03-20T07:59:59Z</time>
      </trkpt>
      <trkpt lat="49.13056" lon="6.74748">
        <ele>329.39</ele>
        <time>2021-03-20T08:00:03Z</time>
      </trkpt>
      <trkpt lat="49.13057" lon="6.74743">
        <ele>330.35</ele>
        <time>2021-03-20T08:00:05Z</time>
      </trkpt>
      <trkpt lat="49.13062" lon="6.74726">
        <ele>329.39</ele>
        <time>2021-03-20T08:00:15Z</time>
      </trkpt>
      <trkpt lat="49.13057" lon="6.74712">
        <ele>328.91</ele>
        <time>2021-03-20T08:00:25Z</time>
      </trkpt>
      <trkpt lat="49.13042" lon="6.74703">
        <ele>326.02</ele>
        <time>2021-03-20T08:00:40Z</time>
      </trkpt>
      <trkpt lat="49.13041" lon="6.74702">
        <ele>325.54</ele>
        <time>2021-03-20T08:00:41Z</time>
      </trkpt>
      <trkpt lat="49.13038" lon="6.74699">
        <ele>325.06</ele>
        <time>2021-03-20T08:00:44Z</time>
      </trkpt>
      <trkpt lat="49.13023" lon="6.74686">
        <ele>321.7</ele>
        <time>2021-03-20T08:00:59Z</time>
      </trkpt>
      <trkpt lat="49.13007" lon="6.74672">
        <ele>319.3</ele>
        <time>2021-03-20T08:01:14Z</time>
      </trkpt>
      <trkpt lat="49.13002" lon="6.74664">
        <ele>318.33</ele>
        <time>2021-03-20T08:01:21Z</time>
      </trkpt>
      <trkpt lat="49.12991" lon="6.74652">
        <ele>315.93</ele>
        <time>2021-03-20T08:01:35Z</time>
      </trkpt>
      <trkpt lat="49.12986" lon="6.74646">
        <ele>314.97</ele>
        <time>2021-03-20T08:01:43Z</time>
      </trkpt>
      <trkpt lat="49.12981" lon="6.74638">
        <ele>312.57</ele>
        <time>2021-03-20T08:01:56Z</time>
      </trkpt>
      <trkpt lat="49.1298" lon="6.74637">
        <ele>312.09</ele>
        <time>2021-03-20T08:01:57Z</time>
      </trkpt>
      <trkpt lat="49.12969" lon="6.74621">
        <ele>307.76</ele>
        <time>2021-03-20T08:02:12Z</time>
      </trkpt>
      <trkpt lat="49.12968" lon="6.7462">
        <ele>308.24</ele>
        <time>2021-03-20T08:02:13Z</time>
      </trkpt>
      <trkpt lat="49.12966" lon="6.74617">
        <ele>306.8</ele>
        <time>2021-03-20T08:02:16Z</time>
      </trkpt>
      <trkpt lat="49.12956" lon="6.74602">
        <ele>303.43</ele>
        <time>2021-03-20T08:02:31Z</time>
      </trkpt>
      <trkpt lat="49.12951" lon="6.74595">
        <ele>301.99</ele>
        <time>2021-03-20T08:02:41Z</time>
      </trkpt>
      <trkpt lat="49.1294" lon="6.74577">
        <ele>299.11</ele>
        <time>2021-03-20T08:02:55Z</time>
      </trkpt>
      <trkpt lat="49.12928" lon="6.74557">
        <ele>296.22</ele>
        <time>2021-03-20T08:03:11Z</time>
      </trkpt>
      <trkpt lat="49.12919" lon="6.74544">
        <ele>292.86</ele>
        <time>2021-03-20T08:03:22Z</time>
      </trkpt>
      <trkpt lat="49.12904" lon="6.74535">
        <ele>291.42</ele>
        <time>2021-03-20T08:03:37Z</time>
      </trkpt>
      <trkpt lat="49.12891" lon="6.74537">
        <ele>288.05</ele>
        <time>2021-03-20T08:03:49Z</time>
      </trkpt>
      <trkpt lat="49.12881" lon="6.74547">
        <ele>287.09</ele>
        <time>2021-03-20T08:04:04Z</time>
      </trkpt>
      <trkpt lat="49.12872" lon="6.7455">
        <ele>284.69</ele>
        <time>2021-03-20T08:04:12Z</time>
      </trkpt>
      <trkpt lat="49.12861" lon="6.74549">
        <ele>281.32</ele>
        <time>2021-03-20T08:04:21Z</time>
      </trkpt>
      <trkpt lat="49.12859" lon="6.7455">
        <ele>280.36</ele>
        <time>2021-03-20T08:04:36Z</time>
      </trkpt>
      <trkpt lat="49.12856" lon="6.74553">
        <ele>280.36</ele>
        <time>2021-03-20T08:04:39Z</time>
      </trkpt>
      <trkpt lat="49.12838" lon="6.74577">
        <ele>279.4</ele>
        <time>2021-03-20T08:04:56Z</time>
      </trkpt>
      <trkpt lat="49.12827" lon="6.74599">
        <ele>277.96</ele>
        <time>2021-03-20T08:05:12Z</time>
      </trkpt>
      <trkpt lat="49.12821" lon="6.74617">
        <ele>277</ele>
        <time>2021-03-20T08:05:25Z</time>
      </trkpt>
      <trkpt lat="49.12821" lon="6.74647">
        <ele>277</ele>
        <time>2021-03-20T08:05:38Z</time>
      </trkpt>
      <trkpt lat="49.12819" lon="6.74666">
        <ele>277.48</ele>
        <time>2021-03-20T08:05:48Z</time>
      </trkpt>
      <trkpt lat="49.12822" lon="6.74704">
        <ele>277</ele>
        <time>2021-03-20T08:06:06Z</time>
      </trkpt>
      <trkpt lat="49.12823" lon="6.74706">
        <ele>277.48</ele>
        <time>2021-03-20T08:06:07Z</time>
      </trkpt>
      <trkpt lat="49.12827" lon="6.74738">
        <ele>277.48</ele>
        <time>2021-03-20T08:06:23Z</time>
      </trkpt>
      <trkpt lat="49.12828" lon="6.74744">
        <ele>277.48</ele>
        <time>2021-03-20T08:06:26Z</time>
      </trkpt>
      <trkpt lat="49.12836" lon="6.74772">
        <ele>277.96</ele>
        <time>2021-03-20T08:06:42Z</time>
      </trkpt>
      <trkpt lat="49.12851" lon="6.74787">
        <ele>279.88</ele>
        <time>2021-03-20T08:06:56Z</time>
      </trkpt>
      <trkpt lat="49.12852" lon="6.74787">
        <ele>279.4</ele>
        <time>2021-03-20T08:06:57Z</time>
      </trkpt>
      <trkpt lat="49.12867" lon="6.74806">
        <ele>280.84</ele>
        <time>2021-03-20T08:07:12Z</time>
      </trkpt>
      <trkpt lat="49.12883" lon="6.74822">
        <ele>282.77</ele>
        <time>2021-03-20T08:07:26Z</time>
      </trkpt>
      <trkpt lat="49.12897" lon="6.74842">
        <ele>282.28</ele>
        <time>2021-03-20T08:07:41Z</time>
      </trkpt>
      <trkpt lat="49.12907" lon="6.74856">
        <ele>279.4</ele>
        <time>2021-03-20T08:07:52Z</time>
      </trkpt>
      <trkpt lat="49.12909" lon="6.74857">
        <ele>278.44</ele>
        <time>2021-03-20T08:07:54Z</time>
      </trkpt>
      <trkpt lat="49.12909" lon="6.74858">
        <ele>277.96</ele>
        <time>2021-03-20T08:07:55Z</time>
      </trkpt>
      <trkpt lat="49.12919" lon="6.74881">
        <ele>278.44</ele>
        <time>2021-03-20T08:08:10Z</time>
      </trkpt>
      <trkpt lat="49.12919" lon="6.74893">
        <ele>279.4</ele>
        <time>2021-03-20T08:08:22Z</time>
      </trkpt>
      <trkpt lat="49.12913" lon="6.74905">
        <ele>281.8</ele>
        <time>2021-03-20T08:08:35Z</time>
      </trkpt>
      <trkpt lat="49.12912" lon="6.74906">
        <ele>280.84</ele>
        <time>2021-03-20T08:08:36Z</time>
      </trkpt>
      <trkpt lat="49.12898" lon="6.74921">
        <ele>282.77</ele>
        <time>2021-03-20T08:08:50Z</time>
      </trkpt>
      <trkpt lat="49.12884" lon="6.74934">
        <ele>281.8</ele>
        <time>2021-03-20T08:09:04Z</time>
      </trkpt>
      <trkpt lat="49.12866" lon="6.74954">
        <ele>281.8</ele>
        <time>2021-03-20T08:09:19Z</time>
      </trkpt>
      <trkpt lat="49.12857" lon="6.74985">
        <ele>281.8</ele>
        <time>2021-03-20T08:09:35Z</time>
      </trkpt>
      <trkpt lat="49.12856" lon="6.74995">
        <ele>281.8</ele>
        <time>2021-03-20T08:09:39Z</time>
      </trkpt>
      <trkpt lat="49.12861" lon="6.75022">
        <ele>279.88</ele>
        <time>2021-03-20T08:09:52Z</time>
      </trkpt>
      <trkpt lat="49.12863" lon="6.75025">
        <ele>279.4</ele>
        <time>2021-03-20T08:09:54Z</time>
      </trkpt>
      <trkpt lat="49.12866" lon="6.75037">
        <ele>278.44</ele>
        <time>2021-03-20T08:10:01Z</time>
      </trkpt>
      <trkpt lat="49.12873" lon="6.75054">
        <ele>277.48</ele>
        <time>2021-03-20T08:10:13Z</time>
      </trkpt>
      <trkpt lat="49.12873" lon="6.7506">
        <ele>276.04</ele>
        <time>2021-03-20T08:10:16Z</time>
      </trkpt>
      <trkpt lat="49.1287" lon="6.75078">
        <ele>276.04</ele>
        <time>2021-03-20T08:10:27Z</time>
      </trkpt>
      <trkpt lat="49.12863" lon="6.75088">
        <ele>276.04</ele>
        <time>2021-03-20T08:10:37Z</time>
      </trkpt>
      <trkpt lat="49.12848" lon="6.75094">
        <ele>276.52</ele>
        <time>2021-03-20T08:10:51Z</time>
      </trkpt>
      <trkpt lat="49.12826" lon="6.75096">
        <ele>277</ele>
        <time>2021-03-20T08:11:05Z</time>
      </trkpt>
      <trkpt lat="49.12808" lon="6.75095">
        <ele>274.59</ele>
        <time>2021-03-20T08:11:20Z</time>
      </trkpt>
      <trkpt lat="49.12802" lon="6.75098">
        <ele>274.59</ele>
        <time>2021-03-20T08:11:26Z</time>
      </trkpt>
      <trkpt lat="49.12798" lon="6.75102">
        <ele>274.11</ele>
        <time>2021-03-20T08:11:30Z</time>
      </trkpt>
      <trkpt lat="49.12789" lon="6.7511">
        <ele>272.67</ele>
        <time>2021-03-20T08:11:39Z</time>
      </trkpt>
      <trkpt lat="49.1278" lon="6.75117">
        <ele>272.67</ele>
        <time>2021-03-20T08:11:47Z</time>
      </trkpt>
      <trkpt lat="49.12776" lon="6.75119">
        <ele>272.19</ele>
        <time>2021-03-20T08:11:50Z</time>
      </trkpt>
      <trkpt lat="49.12757" lon="6.75128">
        <ele>272.19</ele>
        <time>2021-03-20T08:12:05Z</time>
      </trkpt>
      <trkpt lat="49.12754" lon="6.75129">
        <ele>273.15</ele>
        <time>2021-03-20T08:12:07Z</time>
      </trkpt>
      <trkpt lat="49.12741" lon="6.7513">
        <ele>274.59</ele>
        <time>2021-03-20T08:12:17Z</time>
      </trkpt>
      <trkpt lat="49.12718" lon="6.75127">
        <ele>273.63</ele>
        <time>2021-03-20T08:12:33Z</time>
      </trkpt>
      <trkpt lat="49.12698" lon="6.75129">
        <ele>271.23</ele>
        <time>2021-03-20T08:12:50Z</time>
      </trkpt>
      <trkpt lat="49.12695" lon="6.75131">
        <ele>270.75</ele>
        <time>2021-03-20T08:12:53Z</time>
      </trkpt>
      <trkpt lat="49.1268" lon="6.75151">
        <ele>269.31</ele>
        <time>2021-03-20T08:13:07Z</time>
      </trkpt>
      <trkpt lat="49.12678" lon="6.75164">
        <ele>270.27</ele>
        <time>2021-03-20T08:13:21Z</time>
      </trkpt>
      <trkpt lat="49.12677" lon="6.75168">
        <ele>270.27</ele>
        <time>2021-03-20T08:13:42Z</time>
      </trkpt>
      <trkpt lat="49.12675" lon="6.75168">
        <ele>270.27</ele>
        <time>2021-03-20T08:14:13Z</time>
      </trkpt>
      <trkpt lat="49.12675" lon="6.75179">
        <ele>271.71</ele>
        <time>2021-03-20T08:14:33Z</time>
      </trkpt>
      <trkpt lat="49.12665" lon="6.75203">
        <ele>271.23</ele>
        <time>2021-03-20T08:14:50Z</time>
      </trkpt>
      <trkpt lat="49.1266" lon="6.75209">
        <ele>269.31</ele>
        <time>2021-03-20T08:15:05Z</time>
      </trkpt>
      <trkpt lat="49.12658" lon="6.75212">
        <ele>268.35</ele>
        <time>2021-03-20T08:15:29Z</time>
      </trkpt>
      <trkpt lat="49.12654" lon="6.75218">
        <ele>268.35</ele>
        <time>2021-03-20T08:15:47Z</time>
      </trkpt>
      <trkpt lat="49.12646" lon="6.75213">
        <ele>267.86</ele>
        <time>2021-03-20T08:16:17Z</time>
      </trkpt>
      <trkpt lat="49.12645" lon="6.75227">
        <ele>266.9</ele>
        <time>2021-03-20T08:16:39Z</time>
      </trkpt>
      <trkpt lat="49.12639" lon="6.75249">
        <ele>264.02</ele>
        <time>2021-03-20T08:16:54Z</time>
      </trkpt>
      <trkpt lat="49.12632" lon="6.75271">
        <ele>262.58</ele>
        <time>2021-03-20T08:17:09Z</time>
      </trkpt>
      <trkpt lat="49.12627" lon="6.75288">
        <ele>262.58</ele>
        <time>2021-03-20T08:17:22Z</time>
      </trkpt>
      <trkpt lat="49.12615" lon="6.75306">
        <ele>261.62</ele>
        <time>2021-03-20T08:17:38Z</time>
      </trkpt>
      <trkpt lat="49.12602" lon="6.75319">
        <ele>259.69</ele>
        <time>2021-03-20T08:17:52Z</time>
      </trkpt>
      <trkpt lat="49.126" lon="6.75322">
        <ele>258.25</ele>
        <time>2021-03-20T08:17:54Z</time>
      </trkpt>
      <trkpt lat="49.12599" lon="6.75323">
        <ele>259.21</ele>
        <time>2021-03-20T08:17:55Z</time>
      </trkpt>
      <trkpt lat="49.12591" lon="6.75338">
        <ele>256.81</ele>
        <time>2021-03-20T08:18:05Z</time>
      </trkpt>
      <trkpt lat="49.12583" lon="6.75351">
        <ele>255.85</ele>
        <time>2021-03-20T08:18:15Z</time>
      </trkpt>
      <trkpt lat="49.12569" lon="6.75378">
        <ele>255.85</ele>
        <time>2021-03-20T08:18:31Z</time>
      </trkpt>
      <trkpt lat="49.12555" lon="6.75403">
        <ele>255.37</ele>
        <time>2021-03-20T08:18:46Z</time>
      </trkpt>
      <trkpt lat="49.12541" lon="6.75432">
        <ele>254.89</ele>
        <time>2021-03-20T08:19:01Z</time>
      </trkpt>
      <trkpt lat="49.12536" lon="6.75452">
        <ele>254.41</ele>
        <time>2021-03-20T08:19:14Z</time>
      </trkpt>
      <trkpt lat="49.12528" lon="6.75482">
        <ele>252.96</ele>
        <time>2021-03-20T08:19:29Z</time>
      </trkpt>
      <trkpt lat="49.1252" lon="6.75519">
        <ele>252.48</ele>
        <time>2021-03-20T08:19:47Z</time>
      </trkpt>
      <trkpt lat="49.12524" lon="6.75556">
        <ele>251.52</ele>
        <time>2021-03-20T08:20:05Z</time>
      </trkpt>
      <trkpt lat="49.12526" lon="6.75582">
        <ele>250.56</ele>
        <time>2021-03-20T08:20:17Z</time>
      </trkpt>
      <trkpt lat="49.12523" lon="6.75594">
        <ele>250.56</ele>
        <time>2021-03-20T08:20:24Z</time>
      </trkpt>
      <trkpt lat="49.12516" lon="6.75611">
        <ele>250.56</ele>
        <time>2021-03-20T08:20:35Z</time>
      </trkpt>
      <trkpt lat="49.12504" lon="6.75634">
        <ele>251.52</ele>
        <time>2021-03-20T08:20:49Z</time>
      </trkpt>
      <trkpt lat="49.12502" lon="6.75638">
        <ele>251.52</ele>
        <time>2021-03-20T08:20:51Z</time>
      </trkpt>
      <trkpt lat="49.12498" lon="6.75664">
        <ele>251.52</ele>
        <time>2021-03-20T08:21:05Z</time>
      </trkpt>
      <trkpt lat="49.12498" lon="6.75687">
        <ele>252.96</ele>
        <time>2021-03-20T08:21:21Z</time>
      </trkpt>
      <trkpt lat="49.12499" lon="6.75692">
        <ele>252.96</ele>
        <time>2021-03-20T08:21:23Z</time>
      </trkpt>
      <trkpt lat="49.12499" lon="6.7572">
        <ele>251.04</ele>
        <time>2021-03-20T08:21:39Z</time>
      </trkpt>
      <trkpt lat="49.12497" lon="6.7573">
        <ele>249.12</ele>
        <time>2021-03-20T08:21:44Z</time>
      </trkpt>
      <trkpt lat="49.1249" lon="6.7576">
        <ele>246.23</ele>
        <time>2021-03-20T08:22:00Z</time>
      </trkpt>
      <trkpt lat="49.12484" lon="6.75778">
        <ele>242.87</ele>
        <time>2021-03-20T08:22:12Z</time>
      </trkpt>
      <trkpt lat="49.12478" lon="6.75788">
        <ele>240.47</ele>
        <time>2021-03-20T08:22:26Z</time>
      </trkpt>
      <trkpt lat="49.12471" lon="6.75805">
        <ele>237.1</ele>
        <time>2021-03-20T08:22:37Z</time>
      </trkpt>
      <trkpt lat="49.12471" lon="6.75807">
        <ele>237.1</ele>
        <time>2021-03-20T08:22:38Z</time>
      </trkpt>
      <trkpt lat="49.12467" lon="6.75817">
        <ele>235.66</ele>
        <time>2021-03-20T08:22:44Z</time>
      </trkpt>
      <trkpt lat="49.12462" lon="6.75832">
        <ele>232.3</ele>
        <time>2021-03-20T08:22:53Z</time>
      </trkpt>
      <trkpt lat="49.12455" lon="6.75849">
        <ele>228.93</ele>
        <time>2021-03-20T08:23:05Z</time>
      </trkpt>
      <trkpt lat="49.12448" lon="6.75863">
        <ele>226.53</ele>
        <time>2021-03-20T08:23:18Z</time>
      </trkpt>
      <trkpt lat="49.12445" lon="6.75879">
        <ele>226.53</ele>
        <time>2021-03-20T08:23:35Z</time>
      </trkpt>
      <trkpt lat="49.12446" lon="6.75884">
        <ele>226.53</ele>
        <time>2021-03-20T08:23:39Z</time>
      </trkpt>
      <trkpt lat="49.12447" lon="6.75908">
        <ele>225.57</ele>
        <time>2021-03-20T08:23:55Z</time>
      </trkpt>
      <trkpt lat="49.12452" lon="6.75929">
        <ele>223.64</ele>
        <time>2021-03-20T08:24:09Z</time>
      </trkpt>
      <trkpt lat="49.12452" lon="6.75945">
        <ele>221.72</ele>
        <time>2021-03-20T08:24:17Z</time>
      </trkpt>
      <trkpt lat="49.12459" lon="6.75977">
        <ele>218.84</ele>
        <time>2021-03-20T08:24:35Z</time>
      </trkpt>
      <trkpt lat="49.12458" lon="6.75991">
        <ele>218.36</ele>
        <time>2021-03-20T08:24:45Z</time>
      </trkpt>
      <trkpt lat="49.12452" lon="6.76005">
        <ele>216.43</ele>
        <time>2021-03-20T08:24:53Z</time>
      </trkpt>
      <trkpt lat="49.12441" lon="6.76032">
        <ele>214.99</ele>
        <time>2021-03-20T08:25:07Z</time>
      </trkpt>
      <trkpt lat="49.12425" lon="6.76064">
        <ele>214.03</ele>
        <time>2021-03-20T08:25:23Z</time>
      </trkpt>
      <trkpt lat="49.12409" lon="6.76086">
        <ele>213.55</ele>
        <time>2021-03-20T08:25:40Z</time>
      </trkpt>
      <trkpt lat="49.12403" lon="6.76082">
        <ele>214.03</ele>
        <time>2021-03-20T08:25:45Z</time>
      </trkpt>
      <trkpt lat="49.12402" lon="6.7608">
        <ele>214.03</ele>
        <time>2021-03-20T08:25:46Z</time>
      </trkpt>
      <trkpt lat="49.12401" lon="6.76078">
        <ele>214.03</ele>
        <time>2021-03-20T08:25:47Z</time>
      </trkpt>
      <trkpt lat="49.124" lon="6.76077">
        <ele>214.03</ele>
        <time>2021-03-20T08:25:48Z</time>
      </trkpt>
      <trkpt lat="49.12399" lon="6.76075">
        <ele>214.03</ele>
        <time>2021-03-20T08:25:49Z</time>
      </trkpt>
      <trkpt lat="49.12399" lon="6.76072">
        <ele>214.03</ele>
        <time>2021-03-20T08:25:50Z</time>
      </trkpt>
      <trkpt lat="49.12398" lon="6.7607">
        <ele>213.55</ele>
        <time>2021-03-20T08:25:51Z</time>
      </trkpt>
      <trkpt lat="49.12397" lon="6.76068">
        <ele>214.03</ele>
        <time>2021-03-20T08:25:52Z</time>
      </trkpt>
      <trkpt lat="49.12397" lon="6.76065">
        <ele>213.07</ele>
        <time>2021-03-20T08:25:53Z</time>
      </trkpt>
      <trkpt lat="49.12386" lon="6.76033">
        <ele>214.51</ele>
        <time>2021-03-20T08:26:09Z</time>
      </trkpt>
      <trkpt lat="49.12381" lon="6.76019">
        <ele>214.51</ele>
        <time>2021-03-20T08:26:16Z</time>
      </trkpt>
      <trkpt lat="49.12381" lon="6.76017">
        <ele>214.51</ele>
        <time>2021-03-20T08:26:17Z</time>
      </trkpt>
      <trkpt lat="49.1238" lon="6.76015">
        <ele>214.51</ele>
        <time>2021-03-20T08:26:18Z</time>
      </trkpt>
      <trkpt lat="49.12377" lon="6.75986">
        <ele>214.99</ele>
        <time>2021-03-20T08:26:32Z</time>
      </trkpt>
      <trkpt lat="49.12376" lon="6.75983">
        <ele>214.99</ele>
        <time>2021-03-20T08:26:33Z</time>
      </trkpt>
      <trkpt lat="49.12373" lon="6.75971">
        <ele>215.47</ele>
        <time>2021-03-20T08:26:45Z</time>
      </trkpt>
      <trkpt lat="49.12373" lon="6.7597">
        <ele>214.99</ele>
        <time>2021-03-20T08:26:54Z</time>
      </trkpt>
      <trkpt lat="49.12373" lon="6.75971">
        <ele>214.99</ele>
        <time>2021-03-20T08:27:07Z</time>
      </trkpt>
      <trkpt lat="49.12374" lon="6.75969">
        <ele>215.47</ele>
        <time>2021-03-20T08:27:23Z</time>
      </trkpt>
      <trkpt lat="49.12376" lon="6.7597">
        <ele>215.47</ele>
        <time>2021-03-20T08:27:39Z</time>
      </trkpt>
      <trkpt lat="49.12375" lon="6.75971">
        <ele>215.95</ele>
        <time>2021-03-20T08:27:54Z</time>
      </trkpt>
    </trkseg>
  </trk>
</gpx>